<?xml version="1.0" encoding="UTF-8" standalone="no" ?>
<gpx xmlns="http://www.topografix.com/GPX/1/1" xmlns:xsi="http://www.w3.org/2001/XMLSchema-instance" xsi:schemaLocation="http://www.topografix.com/GPX/1/1 http://www.topografix.com/GPX/1/1/gpx.xsd" version="1.1" creator="VisuGPX - https://www.visugpx.com">
  <metadata>
    <name>Descente de Capitou</name>
    <desc><![CDATA[Speciale a Mandelieu]]></desc>
  </metadata>
  <trk>
    <name><![CDATA[2011-10-02T08:18:49Z]]></name>
    <trkseg>
      <trkpt lat="43.59079" lon="6.93128">
        <ele>28.9769287</ele>
        <time>2011-10-02T08:18:49Z</time>
      </trkpt>
      <trkpt lat="43.59079" lon="6.93128">
        <ele>28.9769287</ele>
        <time>2011-10-02T08:18:50Z</time>
      </trkpt>
      <trkpt lat="43.59079" lon="6.93128">
        <ele>28.9769287</ele>
        <time>2011-10-02T08:18:51Z</time>
      </trkpt>
      <trkpt lat="43.59079" lon="6.93127">
        <ele>28.9769287</ele>
        <time>2011-10-02T08:18:53Z</time>
      </trkpt>
      <trkpt lat="43.59083" lon="6.93113">
        <ele>28.9769287</ele>
        <time>2011-10-02T08:18:59Z</time>
      </trkpt>
      <trkpt lat="43.59086" lon="6.93114">
        <ele>28.4962158</ele>
        <time>2011-10-02T08:19:00Z</time>
      </trkpt>
      <trkpt lat="43.5911" lon="6.93117">
        <ele>28.9769287</ele>
        <time>2011-10-02T08:19:08Z</time>
      </trkpt>
      <trkpt lat="43.59128" lon="6.93119">
        <ele>28.9769287</ele>
        <time>2011-10-02T08:19:14Z</time>
      </trkpt>
      <trkpt lat="43.59145" lon="6.93115">
        <ele>28.9769287</ele>
        <time>2011-10-02T08:19:20Z</time>
      </trkpt>
      <trkpt lat="43.59155" lon="6.93115">
        <ele>28.4962158</ele>
        <time>2011-10-02T08:19:26Z</time>
      </trkpt>
      <trkpt lat="43.59157" lon="6.93117">
        <ele>28.9769287</ele>
        <time>2011-10-02T08:19:30Z</time>
      </trkpt>
      <trkpt lat="43.59162" lon="6.93117">
        <ele>28.9769287</ele>
        <time>2011-10-02T08:19:33Z</time>
      </trkpt>
      <trkpt lat="43.59175" lon="6.93116">
        <ele>28.9769287</ele>
        <time>2011-10-02T08:19:39Z</time>
      </trkpt>
      <trkpt lat="43.59182" lon="6.93109">
        <ele>29.4575195</ele>
        <time>2011-10-02T08:19:43Z</time>
      </trkpt>
      <trkpt lat="43.59192" lon="6.93089">
        <ele>29.4575195</ele>
        <time>2011-10-02T08:19:49Z</time>
      </trkpt>
      <trkpt lat="43.59209" lon="6.93068">
        <ele>28.9769287</ele>
        <time>2011-10-02T08:19:56Z</time>
      </trkpt>
      <trkpt lat="43.59213" lon="6.93062">
        <ele>28.9769287</ele>
        <time>2011-10-02T08:19:58Z</time>
      </trkpt>
      <trkpt lat="43.59208" lon="6.93049">
        <ele>28.9769287</ele>
        <time>2011-10-02T08:20:02Z</time>
      </trkpt>
      <trkpt lat="43.59189" lon="6.93025">
        <ele>28.9769287</ele>
        <time>2011-10-02T08:20:10Z</time>
      </trkpt>
      <trkpt lat="43.5918" lon="6.93002">
        <ele>28.4962158</ele>
        <time>2011-10-02T08:20:17Z</time>
      </trkpt>
      <trkpt lat="43.59164" lon="6.92984">
        <ele>28.4962158</ele>
        <time>2011-10-02T08:20:25Z</time>
      </trkpt>
      <trkpt lat="43.59153" lon="6.92977">
        <ele>28.4962158</ele>
        <time>2011-10-02T08:20:30Z</time>
      </trkpt>
      <trkpt lat="43.59139" lon="6.92967">
        <ele>29.4575195</ele>
        <time>2011-10-02T08:20:36Z</time>
      </trkpt>
      <trkpt lat="43.5912" lon="6.92953">
        <ele>28.9769287</ele>
        <time>2011-10-02T08:20:43Z</time>
      </trkpt>
      <trkpt lat="43.59114" lon="6.92938">
        <ele>29.9381104</ele>
        <time>2011-10-02T08:20:49Z</time>
      </trkpt>
      <trkpt lat="43.59114" lon="6.92935">
        <ele>29.4575195</ele>
        <time>2011-10-02T08:20:53Z</time>
      </trkpt>
      <trkpt lat="43.59119" lon="6.92923">
        <ele>29.9381104</ele>
        <time>2011-10-02T08:20:58Z</time>
      </trkpt>
      <trkpt lat="43.59119" lon="6.92906">
        <ele>29.9381104</ele>
        <time>2011-10-02T08:21:02Z</time>
      </trkpt>
      <trkpt lat="43.59107" lon="6.92896">
        <ele>29.9381104</ele>
        <time>2011-10-02T08:21:06Z</time>
      </trkpt>
      <trkpt lat="43.59094" lon="6.92898">
        <ele>29.4575195</ele>
        <time>2011-10-02T08:21:09Z</time>
      </trkpt>
      <trkpt lat="43.59072" lon="6.92893">
        <ele>28.4962158</ele>
        <time>2011-10-02T08:21:14Z</time>
      </trkpt>
      <trkpt lat="43.59037" lon="6.92879">
        <ele>28.4962158</ele>
        <time>2011-10-02T08:21:23Z</time>
      </trkpt>
      <trkpt lat="43.59" lon="6.92863">
        <ele>28.4962158</ele>
        <time>2011-10-02T08:21:33Z</time>
      </trkpt>
      <trkpt lat="43.58975" lon="6.92839">
        <ele>29.9381104</ele>
        <time>2011-10-02T08:21:41Z</time>
      </trkpt>
      <trkpt lat="43.5895" lon="6.92807">
        <ele>31.380127</ele>
        <time>2011-10-02T08:21:50Z</time>
      </trkpt>
      <trkpt lat="43.58922" lon="6.92773">
        <ele>31.8607178</ele>
        <time>2011-10-02T08:22:00Z</time>
      </trkpt>
      <trkpt lat="43.5889" lon="6.92733">
        <ele>30.8995361</ele>
        <time>2011-10-02T08:22:11Z</time>
      </trkpt>
      <trkpt lat="43.58866" lon="6.92707">
        <ele>28.4962158</ele>
        <time>2011-10-02T08:22:17Z</time>
      </trkpt>
      <trkpt lat="43.58821" lon="6.92663">
        <ele>27.0543213</ele>
        <time>2011-10-02T08:22:26Z</time>
      </trkpt>
      <trkpt lat="43.58778" lon="6.92623">
        <ele>26.0928955</ele>
        <time>2011-10-02T08:22:35Z</time>
      </trkpt>
      <trkpt lat="43.58751" lon="6.92598">
        <ele>26.0928955</ele>
        <time>2011-10-02T08:22:42Z</time>
      </trkpt>
      <trkpt lat="43.58734" lon="6.9258">
        <ele>26.5736084</ele>
        <time>2011-10-02T08:22:48Z</time>
      </trkpt>
      <trkpt lat="43.58709" lon="6.92555">
        <ele>26.0928955</ele>
        <time>2011-10-02T08:22:56Z</time>
      </trkpt>
      <trkpt lat="43.587" lon="6.92546">
        <ele>26.5736084</ele>
        <time>2011-10-02T08:22:59Z</time>
      </trkpt>
      <trkpt lat="43.58704" lon="6.92528">
        <ele>26.0928955</ele>
        <time>2011-10-02T08:23:03Z</time>
      </trkpt>
      <trkpt lat="43.58723" lon="6.92518">
        <ele>26.0928955</ele>
        <time>2011-10-02T08:23:08Z</time>
      </trkpt>
      <trkpt lat="43.58753" lon="6.92518">
        <ele>26.5736084</ele>
        <time>2011-10-02T08:23:16Z</time>
      </trkpt>
      <trkpt lat="43.58767" lon="6.92509">
        <ele>26.0928955</ele>
        <time>2011-10-02T08:23:20Z</time>
      </trkpt>
      <trkpt lat="43.58782" lon="6.9248">
        <ele>27.0543213</ele>
        <time>2011-10-02T08:23:27Z</time>
      </trkpt>
      <trkpt lat="43.58791" lon="6.92453">
        <ele>28.0155029</ele>
        <time>2011-10-02T08:23:34Z</time>
      </trkpt>
      <trkpt lat="43.58791" lon="6.92429">
        <ele>28.4962158</ele>
        <time>2011-10-02T08:23:42Z</time>
      </trkpt>
      <trkpt lat="43.58791" lon="6.92415">
        <ele>28.4962158</ele>
        <time>2011-10-02T08:23:47Z</time>
      </trkpt>
      <trkpt lat="43.58792" lon="6.92389">
        <ele>28.0155029</ele>
        <time>2011-10-02T08:23:54Z</time>
      </trkpt>
      <trkpt lat="43.58793" lon="6.92356">
        <ele>28.0155029</ele>
        <time>2011-10-02T08:24:01Z</time>
      </trkpt>
      <trkpt lat="43.58794" lon="6.92323">
        <ele>28.9769287</ele>
        <time>2011-10-02T08:24:08Z</time>
      </trkpt>
      <trkpt lat="43.58789" lon="6.92292">
        <ele>28.4962158</ele>
        <time>2011-10-02T08:24:15Z</time>
      </trkpt>
      <trkpt lat="43.58778" lon="6.92254">
        <ele>28.9769287</ele>
        <time>2011-10-02T08:24:24Z</time>
      </trkpt>
      <trkpt lat="43.58767" lon="6.92215">
        <ele>31.380127</ele>
        <time>2011-10-02T08:24:34Z</time>
      </trkpt>
      <trkpt lat="43.5877" lon="6.92194">
        <ele>32.8222656</ele>
        <time>2011-10-02T08:24:40Z</time>
      </trkpt>
      <trkpt lat="43.58773" lon="6.92168">
        <ele>33.7834473</ele>
        <time>2011-10-02T08:24:48Z</time>
      </trkpt>
      <trkpt lat="43.5877" lon="6.92134">
        <ele>35.2254639</ele>
        <time>2011-10-02T08:24:57Z</time>
      </trkpt>
      <trkpt lat="43.58767" lon="6.92096">
        <ele>36.6674805</ele>
        <time>2011-10-02T08:25:08Z</time>
      </trkpt>
      <trkpt lat="43.58774" lon="6.9208">
        <ele>37.6286621</ele>
        <time>2011-10-02T08:25:14Z</time>
      </trkpt>
      <trkpt lat="43.58787" lon="6.92079">
        <ele>38.5900879</ele>
        <time>2011-10-02T08:25:19Z</time>
      </trkpt>
      <trkpt lat="43.58804" lon="6.92082">
        <ele>39.5512695</ele>
        <time>2011-10-02T08:25:26Z</time>
      </trkpt>
      <trkpt lat="43.58814" lon="6.92073">
        <ele>40.0321045</ele>
        <time>2011-10-02T08:25:31Z</time>
      </trkpt>
      <trkpt lat="43.58819" lon="6.92051">
        <ele>41.473999</ele>
        <time>2011-10-02T08:25:38Z</time>
      </trkpt>
      <trkpt lat="43.58822" lon="6.92027">
        <ele>43.3966064</ele>
        <time>2011-10-02T08:25:45Z</time>
      </trkpt>
      <trkpt lat="43.58828" lon="6.92006">
        <ele>43.8773193</ele>
        <time>2011-10-02T08:25:52Z</time>
      </trkpt>
      <trkpt lat="43.58835" lon="6.91983">
        <ele>45.7999268</ele>
        <time>2011-10-02T08:25:59Z</time>
      </trkpt>
      <trkpt lat="43.58838" lon="6.91972">
        <ele>45.7999268</ele>
        <time>2011-10-02T08:26:05Z</time>
      </trkpt>
      <trkpt lat="43.58837" lon="6.91972">
        <ele>45.7999268</ele>
        <time>2011-10-02T08:26:32Z</time>
      </trkpt>
      <trkpt lat="43.58836" lon="6.91974">
        <ele>44.838623</ele>
        <time>2011-10-02T08:27:29Z</time>
      </trkpt>
      <trkpt lat="43.58836" lon="6.91973">
        <ele>44.3580322</ele>
        <time>2011-10-02T08:27:48Z</time>
      </trkpt>
      <trkpt lat="43.58831" lon="6.91961">
        <ele>43.8773193</ele>
        <time>2011-10-02T08:27:53Z</time>
      </trkpt>
      <trkpt lat="43.58827" lon="6.91953">
        <ele>44.3580322</ele>
        <time>2011-10-02T08:27:56Z</time>
      </trkpt>
      <trkpt lat="43.58814" lon="6.91929">
        <ele>46.7612305</ele>
        <time>2011-10-02T08:28:03Z</time>
      </trkpt>
      <trkpt lat="43.58806" lon="6.91902">
        <ele>48.2033691</ele>
        <time>2011-10-02T08:28:10Z</time>
      </trkpt>
      <trkpt lat="43.58796" lon="6.91886">
        <ele>47.7225342</ele>
        <time>2011-10-02T08:28:16Z</time>
      </trkpt>
      <trkpt lat="43.58776" lon="6.9186">
        <ele>50.1259766</ele>
        <time>2011-10-02T08:28:25Z</time>
      </trkpt>
      <trkpt lat="43.58759" lon="6.91835">
        <ele>50.6065674</ele>
        <time>2011-10-02T08:28:33Z</time>
      </trkpt>
      <trkpt lat="43.5875" lon="6.91814">
        <ele>51.0871582</ele>
        <time>2011-10-02T08:28:38Z</time>
      </trkpt>
      <trkpt lat="43.58746" lon="6.91796">
        <ele>52.048584</ele>
        <time>2011-10-02T08:28:43Z</time>
      </trkpt>
      <trkpt lat="43.58757" lon="6.91788">
        <ele>53.4904785</ele>
        <time>2011-10-02T08:28:48Z</time>
      </trkpt>
      <trkpt lat="43.5876" lon="6.91789">
        <ele>53.4904785</ele>
        <time>2011-10-02T08:28:49Z</time>
      </trkpt>
      <trkpt lat="43.58776" lon="6.91797">
        <ele>54.932373</ele>
        <time>2011-10-02T08:28:56Z</time>
      </trkpt>
      <trkpt lat="43.58797" lon="6.91809">
        <ele>55.8937988</ele>
        <time>2011-10-02T08:29:06Z</time>
      </trkpt>
      <trkpt lat="43.58814" lon="6.91821">
        <ele>57.3358154</ele>
        <time>2011-10-02T08:29:15Z</time>
      </trkpt>
      <trkpt lat="43.58827" lon="6.91829">
        <ele>58.2971191</ele>
        <time>2011-10-02T08:29:22Z</time>
      </trkpt>
      <trkpt lat="43.5884" lon="6.91824">
        <ele>58.77771</ele>
        <time>2011-10-02T08:29:28Z</time>
      </trkpt>
      <trkpt lat="43.58853" lon="6.91804">
        <ele>59.7391357</ele>
        <time>2011-10-02T08:29:37Z</time>
      </trkpt>
      <trkpt lat="43.58861" lon="6.91774">
        <ele>62.142334</ele>
        <time>2011-10-02T08:29:48Z</time>
      </trkpt>
      <trkpt lat="43.5887" lon="6.91753">
        <ele>63.5843506</ele>
        <time>2011-10-02T08:29:56Z</time>
      </trkpt>
      <trkpt lat="43.58882" lon="6.91746">
        <ele>64.5456543</ele>
        <time>2011-10-02T08:30:02Z</time>
      </trkpt>
      <trkpt lat="43.58899" lon="6.91748">
        <ele>66.4682617</ele>
        <time>2011-10-02T08:30:10Z</time>
      </trkpt>
      <trkpt lat="43.58907" lon="6.91761">
        <ele>67.4296875</ele>
        <time>2011-10-02T08:30:16Z</time>
      </trkpt>
      <trkpt lat="43.58911" lon="6.91783">
        <ele>68.871582</ele>
        <time>2011-10-02T08:30:24Z</time>
      </trkpt>
      <trkpt lat="43.58921" lon="6.91806">
        <ele>70.7941895</ele>
        <time>2011-10-02T08:30:34Z</time>
      </trkpt>
      <trkpt lat="43.58931" lon="6.91817">
        <ele>71.7554932</ele>
        <time>2011-10-02T08:30:42Z</time>
      </trkpt>
      <trkpt lat="43.58943" lon="6.91815">
        <ele>72.7169189</ele>
        <time>2011-10-02T08:30:49Z</time>
      </trkpt>
      <trkpt lat="43.58957" lon="6.91803">
        <ele>72.7169189</ele>
        <time>2011-10-02T08:30:57Z</time>
      </trkpt>
      <trkpt lat="43.58968" lon="6.91791">
        <ele>74.6395264</ele>
        <time>2011-10-02T08:31:04Z</time>
      </trkpt>
      <trkpt lat="43.58975" lon="6.91777">
        <ele>76.0814209</ele>
        <time>2011-10-02T08:31:10Z</time>
      </trkpt>
      <trkpt lat="43.58976" lon="6.91763">
        <ele>77.0428467</ele>
        <time>2011-10-02T08:31:16Z</time>
      </trkpt>
      <trkpt lat="43.58966" lon="6.91756">
        <ele>77.5234375</ele>
        <time>2011-10-02T08:31:22Z</time>
      </trkpt>
      <trkpt lat="43.58953" lon="6.9176">
        <ele>77.0428467</ele>
        <time>2011-10-02T08:31:29Z</time>
      </trkpt>
      <trkpt lat="43.58948" lon="6.91764">
        <ele>78.0040283</ele>
        <time>2011-10-02T08:31:32Z</time>
      </trkpt>
      <trkpt lat="43.58935" lon="6.91757">
        <ele>79.4460449</ele>
        <time>2011-10-02T08:31:39Z</time>
      </trkpt>
      <trkpt lat="43.58934" lon="6.91754">
        <ele>79.4460449</ele>
        <time>2011-10-02T08:31:40Z</time>
      </trkpt>
      <trkpt lat="43.58928" lon="6.91728">
        <ele>81.3687744</ele>
        <time>2011-10-02T08:31:49Z</time>
      </trkpt>
      <trkpt lat="43.58922" lon="6.91707">
        <ele>82.810791</ele>
        <time>2011-10-02T08:31:57Z</time>
      </trkpt>
      <trkpt lat="43.58912" lon="6.91689">
        <ele>83.7719727</ele>
        <time>2011-10-02T08:32:05Z</time>
      </trkpt>
      <trkpt lat="43.58898" lon="6.91683">
        <ele>85.2139893</ele>
        <time>2011-10-02T08:32:12Z</time>
      </trkpt>
      <trkpt lat="43.58886" lon="6.91672">
        <ele>87.1365967</ele>
        <time>2011-10-02T08:32:19Z</time>
      </trkpt>
      <trkpt lat="43.58876" lon="6.91655">
        <ele>87.6171875</ele>
        <time>2011-10-02T08:32:26Z</time>
      </trkpt>
      <trkpt lat="43.58866" lon="6.91642">
        <ele>89.0593262</ele>
        <time>2011-10-02T08:32:33Z</time>
      </trkpt>
      <trkpt lat="43.58856" lon="6.91633">
        <ele>90.5013428</ele>
        <time>2011-10-02T08:32:39Z</time>
      </trkpt>
      <trkpt lat="43.58844" lon="6.91637">
        <ele>91.9432373</ele>
        <time>2011-10-02T08:32:46Z</time>
      </trkpt>
      <trkpt lat="43.58836" lon="6.91658">
        <ele>91.9432373</ele>
        <time>2011-10-02T08:32:54Z</time>
      </trkpt>
      <trkpt lat="43.58827" lon="6.91682">
        <ele>92.4239502</ele>
        <time>2011-10-02T08:33:03Z</time>
      </trkpt>
      <trkpt lat="43.58817" lon="6.91691">
        <ele>93.8658447</ele>
        <time>2011-10-02T08:33:09Z</time>
      </trkpt>
      <trkpt lat="43.58798" lon="6.9169">
        <ele>95.7884521</ele>
        <time>2011-10-02T08:33:18Z</time>
      </trkpt>
      <trkpt lat="43.58781" lon="6.91687">
        <ele>96.2692871</ele>
        <time>2011-10-02T08:33:26Z</time>
      </trkpt>
      <trkpt lat="43.58773" lon="6.91675">
        <ele>96.7498779</ele>
        <time>2011-10-02T08:33:31Z</time>
      </trkpt>
      <trkpt lat="43.58778" lon="6.91661">
        <ele>99.1530762</ele>
        <time>2011-10-02T08:33:37Z</time>
      </trkpt>
      <trkpt lat="43.58787" lon="6.91661">
        <ele>99.6337891</ele>
        <time>2011-10-02T08:33:42Z</time>
      </trkpt>
      <trkpt lat="43.58789" lon="6.91662">
        <ele>99.6337891</ele>
        <time>2011-10-02T08:33:43Z</time>
      </trkpt>
      <trkpt lat="43.58805" lon="6.91671">
        <ele>100.5950928</ele>
        <time>2011-10-02T08:33:52Z</time>
      </trkpt>
      <trkpt lat="43.58815" lon="6.91665">
        <ele>102.998291</ele>
        <time>2011-10-02T08:33:58Z</time>
      </trkpt>
      <trkpt lat="43.58822" lon="6.91649">
        <ele>102.5177002</ele>
        <time>2011-10-02T08:34:05Z</time>
      </trkpt>
      <trkpt lat="43.58826" lon="6.91625">
        <ele>102.998291</ele>
        <time>2011-10-02T08:34:14Z</time>
      </trkpt>
      <trkpt lat="43.58834" lon="6.91605">
        <ele>104.4404297</ele>
        <time>2011-10-02T08:34:23Z</time>
      </trkpt>
      <trkpt lat="43.58847" lon="6.91586">
        <ele>105.8824463</ele>
        <time>2011-10-02T08:34:32Z</time>
      </trkpt>
      <trkpt lat="43.58858" lon="6.91583">
        <ele>106.8436279</ele>
        <time>2011-10-02T08:34:38Z</time>
      </trkpt>
      <trkpt lat="43.58869" lon="6.91588">
        <ele>107.8050537</ele>
        <time>2011-10-02T08:34:44Z</time>
      </trkpt>
      <trkpt lat="43.58883" lon="6.91598">
        <ele>109.2469482</ele>
        <time>2011-10-02T08:34:52Z</time>
      </trkpt>
      <trkpt lat="43.58893" lon="6.91605">
        <ele>110.208252</ele>
        <time>2011-10-02T08:34:58Z</time>
      </trkpt>
      <trkpt lat="43.58907" lon="6.9161">
        <ele>110.208252</ele>
        <time>2011-10-02T08:35:06Z</time>
      </trkpt>
      <trkpt lat="43.58913" lon="6.9161">
        <ele>110.6888428</ele>
        <time>2011-10-02T08:35:09Z</time>
      </trkpt>
      <trkpt lat="43.58921" lon="6.91594">
        <ele>111.6502686</ele>
        <time>2011-10-02T08:35:17Z</time>
      </trkpt>
      <trkpt lat="43.58917" lon="6.91576">
        <ele>113.0922852</ele>
        <time>2011-10-02T08:35:24Z</time>
      </trkpt>
      <trkpt lat="43.5891" lon="6.91564">
        <ele>114.0535889</ele>
        <time>2011-10-02T08:35:30Z</time>
      </trkpt>
      <trkpt lat="43.589" lon="6.91551">
        <ele>115.4956055</ele>
        <time>2011-10-02T08:35:37Z</time>
      </trkpt>
      <trkpt lat="43.58883" lon="6.91533">
        <ele>116.4567871</ele>
        <time>2011-10-02T08:35:48Z</time>
      </trkpt>
      <trkpt lat="43.58868" lon="6.91518">
        <ele>118.3793945</ele>
        <time>2011-10-02T08:35:58Z</time>
      </trkpt>
      <trkpt lat="43.58867" lon="6.91516">
        <ele>118.3793945</ele>
        <time>2011-10-02T08:35:59Z</time>
      </trkpt>
      <trkpt lat="43.58861" lon="6.91496">
        <ele>119.8214111</ele>
        <time>2011-10-02T08:36:07Z</time>
      </trkpt>
      <trkpt lat="43.5886" lon="6.91491">
        <ele>120.7828369</ele>
        <time>2011-10-02T08:36:09Z</time>
      </trkpt>
      <trkpt lat="43.58855" lon="6.91476">
        <ele>121.7441406</ele>
        <time>2011-10-02T08:36:16Z</time>
      </trkpt>
      <trkpt lat="43.58846" lon="6.9147">
        <ele>122.7054443</ele>
        <time>2011-10-02T08:36:22Z</time>
      </trkpt>
      <trkpt lat="43.58838" lon="6.91475">
        <ele>122.7054443</ele>
        <time>2011-10-02T08:36:27Z</time>
      </trkpt>
      <trkpt lat="43.58831" lon="6.91495">
        <ele>124.1473389</ele>
        <time>2011-10-02T08:36:36Z</time>
      </trkpt>
      <trkpt lat="43.58831" lon="6.91519">
        <ele>124.1473389</ele>
        <time>2011-10-02T08:36:45Z</time>
      </trkpt>
      <trkpt lat="43.58824" lon="6.91535">
        <ele>125.1087646</ele>
        <time>2011-10-02T08:36:52Z</time>
      </trkpt>
      <trkpt lat="43.58809" lon="6.91543">
        <ele>126.5506592</ele>
        <time>2011-10-02T08:37:01Z</time>
      </trkpt>
      <trkpt lat="43.58794" lon="6.91544">
        <ele>128.9541016</ele>
        <time>2011-10-02T08:37:09Z</time>
      </trkpt>
      <trkpt lat="43.58778" lon="6.91544">
        <ele>129.9152832</ele>
        <time>2011-10-02T08:37:18Z</time>
      </trkpt>
      <trkpt lat="43.58763" lon="6.91537">
        <ele>131.8378906</ele>
        <time>2011-10-02T08:37:26Z</time>
      </trkpt>
      <trkpt lat="43.58759" lon="6.9152">
        <ele>131.8378906</ele>
        <time>2011-10-02T08:37:33Z</time>
      </trkpt>
      <trkpt lat="43.58766" lon="6.91504">
        <ele>133.760498</ele>
        <time>2011-10-02T08:37:41Z</time>
      </trkpt>
      <trkpt lat="43.58768" lon="6.91502">
        <ele>133.760498</ele>
        <time>2011-10-02T08:37:42Z</time>
      </trkpt>
      <trkpt lat="43.58776" lon="6.91501">
        <ele>134.2412109</ele>
        <time>2011-10-02T08:37:46Z</time>
      </trkpt>
      <trkpt lat="43.5879" lon="6.91498">
        <ele>135.6831055</ele>
        <time>2011-10-02T08:37:54Z</time>
      </trkpt>
      <trkpt lat="43.58803" lon="6.9149">
        <ele>137.1252441</ele>
        <time>2011-10-02T08:38:02Z</time>
      </trkpt>
      <trkpt lat="43.58811" lon="6.91474">
        <ele>137.605835</ele>
        <time>2011-10-02T08:38:09Z</time>
      </trkpt>
      <trkpt lat="43.58816" lon="6.91454">
        <ele>139.5284424</ele>
        <time>2011-10-02T08:38:17Z</time>
      </trkpt>
      <trkpt lat="43.5882" lon="6.9143">
        <ele>141.4510498</ele>
        <time>2011-10-02T08:38:27Z</time>
      </trkpt>
      <trkpt lat="43.58819" lon="6.91411">
        <ele>141.4510498</ele>
        <time>2011-10-02T08:38:35Z</time>
      </trkpt>
      <trkpt lat="43.58821" lon="6.91394">
        <ele>142.4124756</ele>
        <time>2011-10-02T08:38:42Z</time>
      </trkpt>
      <trkpt lat="43.58821" lon="6.91364">
        <ele>143.3736572</ele>
        <time>2011-10-02T08:38:54Z</time>
      </trkpt>
      <trkpt lat="43.58823" lon="6.91341">
        <ele>145.2963867</ele>
        <time>2011-10-02T08:39:03Z</time>
      </trkpt>
      <trkpt lat="43.58828" lon="6.91314">
        <ele>146.7384033</ele>
        <time>2011-10-02T08:39:14Z</time>
      </trkpt>
      <trkpt lat="43.58825" lon="6.9129">
        <ele>146.7384033</ele>
        <time>2011-10-02T08:39:23Z</time>
      </trkpt>
      <trkpt lat="43.5882" lon="6.91265">
        <ele>148.6610107</ele>
        <time>2011-10-02T08:39:33Z</time>
      </trkpt>
      <trkpt lat="43.58816" lon="6.91244">
        <ele>149.6223145</ele>
        <time>2011-10-02T08:39:41Z</time>
      </trkpt>
      <trkpt lat="43.58809" lon="6.91213">
        <ele>151.064209</ele>
        <time>2011-10-02T08:39:53Z</time>
      </trkpt>
      <trkpt lat="43.58806" lon="6.91189">
        <ele>152.9869385</ele>
        <time>2011-10-02T08:40:02Z</time>
      </trkpt>
      <trkpt lat="43.58803" lon="6.91157">
        <ele>153.9483643</ele>
        <time>2011-10-02T08:40:14Z</time>
      </trkpt>
      <trkpt lat="43.58803" lon="6.91137">
        <ele>155.8709717</ele>
        <time>2011-10-02T08:40:22Z</time>
      </trkpt>
      <trkpt lat="43.58802" lon="6.91116">
        <ele>156.3515625</ele>
        <time>2011-10-02T08:40:30Z</time>
      </trkpt>
      <trkpt lat="43.58801" lon="6.91091">
        <ele>157.3128662</ele>
        <time>2011-10-02T08:40:40Z</time>
      </trkpt>
      <trkpt lat="43.588" lon="6.91067">
        <ele>158.7547607</ele>
        <time>2011-10-02T08:40:49Z</time>
      </trkpt>
      <trkpt lat="43.58799" lon="6.91043">
        <ele>159.7161865</ele>
        <time>2011-10-02T08:40:58Z</time>
      </trkpt>
      <trkpt lat="43.58803" lon="6.91014">
        <ele>161.1582031</ele>
        <time>2011-10-02T08:41:09Z</time>
      </trkpt>
      <trkpt lat="43.58815" lon="6.91004">
        <ele>163.0808105</ele>
        <time>2011-10-02T08:41:16Z</time>
      </trkpt>
      <trkpt lat="43.58828" lon="6.91003">
        <ele>163.5615234</ele>
        <time>2011-10-02T08:41:23Z</time>
      </trkpt>
      <trkpt lat="43.58845" lon="6.91011">
        <ele>165.4841309</ele>
        <time>2011-10-02T08:41:32Z</time>
      </trkpt>
      <trkpt lat="43.58847" lon="6.91012">
        <ele>165.9647217</ele>
        <time>2011-10-02T08:41:33Z</time>
      </trkpt>
      <trkpt lat="43.58862" lon="6.91016">
        <ele>166.9260254</ele>
        <time>2011-10-02T08:41:41Z</time>
      </trkpt>
      <trkpt lat="43.58879" lon="6.91017">
        <ele>166.9260254</ele>
        <time>2011-10-02T08:41:49Z</time>
      </trkpt>
      <trkpt lat="43.58891" lon="6.91024">
        <ele>167.8873291</ele>
        <time>2011-10-02T08:41:56Z</time>
      </trkpt>
      <trkpt lat="43.58908" lon="6.91033">
        <ele>169.8100586</ele>
        <time>2011-10-02T08:42:05Z</time>
      </trkpt>
      <trkpt lat="43.58919" lon="6.91022">
        <ele>169.8100586</ele>
        <time>2011-10-02T08:42:12Z</time>
      </trkpt>
      <trkpt lat="43.58926" lon="6.90997">
        <ele>171.2520752</ele>
        <time>2011-10-02T08:42:22Z</time>
      </trkpt>
      <trkpt lat="43.58931" lon="6.90976">
        <ele>171.732666</ele>
        <time>2011-10-02T08:42:31Z</time>
      </trkpt>
      <trkpt lat="43.58936" lon="6.90952">
        <ele>173.1746826</ele>
        <time>2011-10-02T08:42:40Z</time>
      </trkpt>
      <trkpt lat="43.58942" lon="6.90932">
        <ele>174.1358643</ele>
        <time>2011-10-02T08:42:48Z</time>
      </trkpt>
      <trkpt lat="43.58952" lon="6.90911">
        <ele>175.09729</ele>
        <time>2011-10-02T08:42:57Z</time>
      </trkpt>
      <trkpt lat="43.58952" lon="6.90889">
        <ele>176.5393066</ele>
        <time>2011-10-02T08:43:05Z</time>
      </trkpt>
      <trkpt lat="43.58946" lon="6.90864">
        <ele>177.0200195</ele>
        <time>2011-10-02T08:43:15Z</time>
      </trkpt>
      <trkpt lat="43.58939" lon="6.90844">
        <ele>178.4619141</ele>
        <time>2011-10-02T08:43:23Z</time>
      </trkpt>
      <trkpt lat="43.58929" lon="6.90835">
        <ele>179.9038086</ele>
        <time>2011-10-02T08:43:29Z</time>
      </trkpt>
      <trkpt lat="43.58915" lon="6.90825">
        <ele>179.4232178</ele>
        <time>2011-10-02T08:43:37Z</time>
      </trkpt>
      <trkpt lat="43.58907" lon="6.90808">
        <ele>180.3845215</ele>
        <time>2011-10-02T08:43:44Z</time>
      </trkpt>
      <trkpt lat="43.58901" lon="6.90786">
        <ele>181.826416</ele>
        <time>2011-10-02T08:43:53Z</time>
      </trkpt>
      <trkpt lat="43.58893" lon="6.90763">
        <ele>182.7878418</ele>
        <time>2011-10-02T08:44:02Z</time>
      </trkpt>
      <trkpt lat="43.58884" lon="6.90738">
        <ele>183.2684326</ele>
        <time>2011-10-02T08:44:12Z</time>
      </trkpt>
      <trkpt lat="43.58882" lon="6.90717">
        <ele>184.2298584</ele>
        <time>2011-10-02T08:44:20Z</time>
      </trkpt>
      <trkpt lat="43.58878" lon="6.90699">
        <ele>186.1524658</ele>
        <time>2011-10-02T08:44:27Z</time>
      </trkpt>
      <trkpt lat="43.58875" lon="6.90677">
        <ele>187.5943604</ele>
        <time>2011-10-02T08:44:35Z</time>
      </trkpt>
      <trkpt lat="43.5887" lon="6.90649">
        <ele>188.5557861</ele>
        <time>2011-10-02T08:44:45Z</time>
      </trkpt>
      <trkpt lat="43.58867" lon="6.90625">
        <ele>190.4783936</ele>
        <time>2011-10-02T08:44:54Z</time>
      </trkpt>
      <trkpt lat="43.58867" lon="6.90605">
        <ele>190.4783936</ele>
        <time>2011-10-02T08:45:01Z</time>
      </trkpt>
      <trkpt lat="43.58876" lon="6.90595">
        <ele>191.9202881</ele>
        <time>2011-10-02T08:45:07Z</time>
      </trkpt>
      <trkpt lat="43.58891" lon="6.906">
        <ele>192.8817139</ele>
        <time>2011-10-02T08:45:15Z</time>
      </trkpt>
      <trkpt lat="43.58908" lon="6.90612">
        <ele>193.8430176</ele>
        <time>2011-10-02T08:45:25Z</time>
      </trkpt>
      <trkpt lat="43.58924" lon="6.9061">
        <ele>194.8043213</ele>
        <time>2011-10-02T08:45:33Z</time>
      </trkpt>
      <trkpt lat="43.58933" lon="6.90597">
        <ele>195.765625</ele>
        <time>2011-10-02T08:45:40Z</time>
      </trkpt>
      <trkpt lat="43.58948" lon="6.90571">
        <ele>197.2075195</ele>
        <time>2011-10-02T08:45:52Z</time>
      </trkpt>
      <trkpt lat="43.58959" lon="6.90564">
        <ele>197.6882324</ele>
        <time>2011-10-02T08:45:58Z</time>
      </trkpt>
      <trkpt lat="43.58973" lon="6.90567">
        <ele>198.6495361</ele>
        <time>2011-10-02T08:46:05Z</time>
      </trkpt>
      <trkpt lat="43.58979" lon="6.90581">
        <ele>200.0916748</ele>
        <time>2011-10-02T08:46:11Z</time>
      </trkpt>
      <trkpt lat="43.58984" lon="6.90602">
        <ele>200.5722656</ele>
        <time>2011-10-02T08:46:19Z</time>
      </trkpt>
      <trkpt lat="43.5899" lon="6.90622">
        <ele>201.5335693</ele>
        <time>2011-10-02T08:46:27Z</time>
      </trkpt>
      <trkpt lat="43.58998" lon="6.90643">
        <ele>202.494873</ele>
        <time>2011-10-02T08:46:36Z</time>
      </trkpt>
      <trkpt lat="43.5901" lon="6.90655">
        <ele>204.4174805</ele>
        <time>2011-10-02T08:46:44Z</time>
      </trkpt>
      <trkpt lat="43.59027" lon="6.90661">
        <ele>205.3787842</ele>
        <time>2011-10-02T08:46:53Z</time>
      </trkpt>
      <trkpt lat="43.59043" lon="6.90664">
        <ele>206.8206787</ele>
        <time>2011-10-02T08:47:01Z</time>
      </trkpt>
      <trkpt lat="43.59053" lon="6.90656">
        <ele>207.7821045</ele>
        <time>2011-10-02T08:47:07Z</time>
      </trkpt>
      <trkpt lat="43.59064" lon="6.9064">
        <ele>208.2628174</ele>
        <time>2011-10-02T08:47:15Z</time>
      </trkpt>
      <trkpt lat="43.59076" lon="6.90626">
        <ele>209.2241211</ele>
        <time>2011-10-02T08:47:23Z</time>
      </trkpt>
      <trkpt lat="43.59088" lon="6.90627">
        <ele>209.2241211</ele>
        <time>2011-10-02T08:47:29Z</time>
      </trkpt>
      <trkpt lat="43.59102" lon="6.90631">
        <ele>211.1467285</ele>
        <time>2011-10-02T08:47:37Z</time>
      </trkpt>
      <trkpt lat="43.59117" lon="6.90623">
        <ele>212.588623</ele>
        <time>2011-10-02T08:47:45Z</time>
      </trkpt>
      <trkpt lat="43.59132" lon="6.90615">
        <ele>214.0306396</ele>
        <time>2011-10-02T08:47:53Z</time>
      </trkpt>
      <trkpt lat="43.59146" lon="6.90616">
        <ele>214.5112305</ele>
        <time>2011-10-02T08:48:00Z</time>
      </trkpt>
      <trkpt lat="43.59162" lon="6.90615">
        <ele>214.9919434</ele>
        <time>2011-10-02T08:48:08Z</time>
      </trkpt>
      <trkpt lat="43.59176" lon="6.90607">
        <ele>215.9532471</ele>
        <time>2011-10-02T08:48:16Z</time>
      </trkpt>
      <trkpt lat="43.59191" lon="6.906">
        <ele>217.3953857</ele>
        <time>2011-10-02T08:48:24Z</time>
      </trkpt>
      <trkpt lat="43.59204" lon="6.90592">
        <ele>217.8759766</ele>
        <time>2011-10-02T08:48:32Z</time>
      </trkpt>
      <trkpt lat="43.59205" lon="6.90592">
        <ele>217.8759766</ele>
        <time>2011-10-02T08:48:38Z</time>
      </trkpt>
      <trkpt lat="43.59206" lon="6.90592">
        <ele>217.8759766</ele>
        <time>2011-10-02T08:49:51Z</time>
      </trkpt>
      <trkpt lat="43.59212" lon="6.90588">
        <ele>219.3179932</ele>
        <time>2011-10-02T08:49:56Z</time>
      </trkpt>
      <trkpt lat="43.59231" lon="6.9058">
        <ele>219.798584</ele>
        <time>2011-10-02T08:50:06Z</time>
      </trkpt>
      <trkpt lat="43.59244" lon="6.90572">
        <ele>220.7598877</ele>
        <time>2011-10-02T08:50:13Z</time>
      </trkpt>
      <trkpt lat="43.59259" lon="6.90565">
        <ele>221.7211914</ele>
        <time>2011-10-02T08:50:21Z</time>
      </trkpt>
      <trkpt lat="43.59273" lon="6.90557">
        <ele>222.2017822</ele>
        <time>2011-10-02T08:50:28Z</time>
      </trkpt>
      <trkpt lat="43.59289" lon="6.90542">
        <ele>223.163208</ele>
        <time>2011-10-02T08:50:37Z</time>
      </trkpt>
      <trkpt lat="43.59295" lon="6.90532">
        <ele>224.6052246</ele>
        <time>2011-10-02T08:50:41Z</time>
      </trkpt>
      <trkpt lat="43.59295" lon="6.90509">
        <ele>225.5665283</ele>
        <time>2011-10-02T08:50:49Z</time>
      </trkpt>
      <trkpt lat="43.59284" lon="6.9049">
        <ele>226.0471191</ele>
        <time>2011-10-02T08:50:57Z</time>
      </trkpt>
      <trkpt lat="43.59268" lon="6.90469">
        <ele>227.0085449</ele>
        <time>2011-10-02T08:51:07Z</time>
      </trkpt>
      <trkpt lat="43.59249" lon="6.90444">
        <ele>228.9311523</ele>
        <time>2011-10-02T08:51:19Z</time>
      </trkpt>
      <trkpt lat="43.59235" lon="6.90425">
        <ele>229.892334</ele>
        <time>2011-10-02T08:51:28Z</time>
      </trkpt>
      <trkpt lat="43.59218" lon="6.90402">
        <ele>231.8149414</ele>
        <time>2011-10-02T08:51:39Z</time>
      </trkpt>
      <trkpt lat="43.59203" lon="6.90383">
        <ele>233.2570801</ele>
        <time>2011-10-02T08:51:49Z</time>
      </trkpt>
      <trkpt lat="43.59186" lon="6.9037">
        <ele>233.7376709</ele>
        <time>2011-10-02T08:51:58Z</time>
      </trkpt>
      <trkpt lat="43.59166" lon="6.9036">
        <ele>234.6990967</ele>
        <time>2011-10-02T08:52:08Z</time>
      </trkpt>
      <trkpt lat="43.59157" lon="6.90346">
        <ele>235.1796875</ele>
        <time>2011-10-02T08:52:14Z</time>
      </trkpt>
      <trkpt lat="43.59147" lon="6.90326">
        <ele>237.1022949</ele>
        <time>2011-10-02T08:52:22Z</time>
      </trkpt>
      <trkpt lat="43.5913" lon="6.90313">
        <ele>238.0635986</ele>
        <time>2011-10-02T08:52:31Z</time>
      </trkpt>
      <trkpt lat="43.59113" lon="6.9031">
        <ele>239.5054932</ele>
        <time>2011-10-02T08:52:39Z</time>
      </trkpt>
      <trkpt lat="43.59091" lon="6.90304">
        <ele>240.467041</ele>
        <time>2011-10-02T08:52:49Z</time>
      </trkpt>
      <trkpt lat="43.59072" lon="6.90298">
        <ele>241.9089355</ele>
        <time>2011-10-02T08:52:58Z</time>
      </trkpt>
      <trkpt lat="43.59053" lon="6.90298">
        <ele>242.8702393</ele>
        <time>2011-10-02T08:53:07Z</time>
      </trkpt>
      <trkpt lat="43.59036" lon="6.90296">
        <ele>243.3508301</ele>
        <time>2011-10-02T08:53:15Z</time>
      </trkpt>
      <trkpt lat="43.59028" lon="6.90286">
        <ele>244.3122559</ele>
        <time>2011-10-02T08:53:20Z</time>
      </trkpt>
      <trkpt lat="43.59024" lon="6.90261">
        <ele>246.7154541</ele>
        <time>2011-10-02T08:53:28Z</time>
      </trkpt>
      <trkpt lat="43.59015" lon="6.90241">
        <ele>247.1960449</ele>
        <time>2011-10-02T08:53:36Z</time>
      </trkpt>
      <trkpt lat="43.59" lon="6.90222">
        <ele>248.6381836</ele>
        <time>2011-10-02T08:53:45Z</time>
      </trkpt>
      <trkpt lat="43.5898" lon="6.90205">
        <ele>249.5994873</ele>
        <time>2011-10-02T08:53:56Z</time>
      </trkpt>
      <trkpt lat="43.5896" lon="6.90189">
        <ele>251.5220947</ele>
        <time>2011-10-02T08:54:07Z</time>
      </trkpt>
      <trkpt lat="43.58943" lon="6.90176">
        <ele>252.4833984</ele>
        <time>2011-10-02T08:54:16Z</time>
      </trkpt>
      <trkpt lat="43.58928" lon="6.90174">
        <ele>253.4447021</ele>
        <time>2011-10-02T08:54:23Z</time>
      </trkpt>
      <trkpt lat="43.58916" lon="6.90186">
        <ele>253.925415</ele>
        <time>2011-10-02T08:54:30Z</time>
      </trkpt>
      <trkpt lat="43.58904" lon="6.9021">
        <ele>255.8480225</ele>
        <time>2011-10-02T08:54:40Z</time>
      </trkpt>
      <trkpt lat="43.58893" lon="6.90232">
        <ele>257.2900391</ele>
        <time>2011-10-02T08:54:49Z</time>
      </trkpt>
      <trkpt lat="43.58881" lon="6.90231">
        <ele>258.2513428</ele>
        <time>2011-10-02T08:54:55Z</time>
      </trkpt>
      <trkpt lat="43.58863" lon="6.90215">
        <ele>259.6933594</ele>
        <time>2011-10-02T08:55:05Z</time>
      </trkpt>
      <trkpt lat="43.58841" lon="6.90197">
        <ele>262.0965576</ele>
        <time>2011-10-02T08:55:17Z</time>
      </trkpt>
      <trkpt lat="43.58824" lon="6.90183">
        <ele>263.0578613</ele>
        <time>2011-10-02T08:55:27Z</time>
      </trkpt>
      <trkpt lat="43.58809" lon="6.90167">
        <ele>264.9805908</ele>
        <time>2011-10-02T08:55:36Z</time>
      </trkpt>
      <trkpt lat="43.58803" lon="6.90145">
        <ele>266.9031982</ele>
        <time>2011-10-02T08:55:44Z</time>
      </trkpt>
      <trkpt lat="43.58803" lon="6.90125">
        <ele>267.3839111</ele>
        <time>2011-10-02T08:55:51Z</time>
      </trkpt>
      <trkpt lat="43.58805" lon="6.90102">
        <ele>268.8258057</ele>
        <time>2011-10-02T08:55:59Z</time>
      </trkpt>
      <trkpt lat="43.58794" lon="6.90069">
        <ele>269.7871094</ele>
        <time>2011-10-02T08:56:11Z</time>
      </trkpt>
      <trkpt lat="43.58787" lon="6.90047">
        <ele>270.7484131</ele>
        <time>2011-10-02T08:56:19Z</time>
      </trkpt>
      <trkpt lat="43.58778" lon="6.90019">
        <ele>272.1904297</ele>
        <time>2011-10-02T08:56:29Z</time>
      </trkpt>
      <trkpt lat="43.58775" lon="6.89999">
        <ele>272.6711426</ele>
        <time>2011-10-02T08:56:36Z</time>
      </trkpt>
      <trkpt lat="43.5878" lon="6.89979">
        <ele>274.1130371</ele>
        <time>2011-10-02T08:56:43Z</time>
      </trkpt>
      <trkpt lat="43.58789" lon="6.89962">
        <ele>275.5550537</ele>
        <time>2011-10-02T08:56:50Z</time>
      </trkpt>
      <trkpt lat="43.58795" lon="6.8994">
        <ele>276.9970703</ele>
        <time>2011-10-02T08:56:58Z</time>
      </trkpt>
      <trkpt lat="43.58796" lon="6.89924">
        <ele>277.4776611</ele>
        <time>2011-10-02T08:57:04Z</time>
      </trkpt>
      <trkpt lat="43.58801" lon="6.89895">
        <ele>279.4002686</ele>
        <time>2011-10-02T08:57:14Z</time>
      </trkpt>
      <trkpt lat="43.58806" lon="6.89871">
        <ele>280.3616943</ele>
        <time>2011-10-02T08:57:23Z</time>
      </trkpt>
      <trkpt lat="43.5881" lon="6.8984">
        <ele>281.8035889</ele>
        <time>2011-10-02T08:57:34Z</time>
      </trkpt>
      <trkpt lat="43.58817" lon="6.89829">
        <ele>282.2843018</ele>
        <time>2011-10-02T08:57:39Z</time>
      </trkpt>
      <trkpt lat="43.58827" lon="6.89812">
        <ele>284.2069092</ele>
        <time>2011-10-02T08:57:47Z</time>
      </trkpt>
      <trkpt lat="43.58836" lon="6.89793">
        <ele>284.6876221</ele>
        <time>2011-10-02T08:57:55Z</time>
      </trkpt>
      <trkpt lat="43.58842" lon="6.89778">
        <ele>285.1682129</ele>
        <time>2011-10-02T08:58:01Z</time>
      </trkpt>
      <trkpt lat="43.58853" lon="6.89752">
        <ele>286.6102295</ele>
        <time>2011-10-02T08:58:11Z</time>
      </trkpt>
      <trkpt lat="43.58866" lon="6.8972">
        <ele>287.5714111</ele>
        <time>2011-10-02T08:58:23Z</time>
      </trkpt>
      <trkpt lat="43.58868" lon="6.89702">
        <ele>288.0522461</ele>
        <time>2011-10-02T08:58:30Z</time>
      </trkpt>
      <trkpt lat="43.58868" lon="6.89694">
        <ele>288.532959</ele>
        <time>2011-10-02T08:58:35Z</time>
      </trkpt>
      <trkpt lat="43.58869" lon="6.89697">
        <ele>288.532959</ele>
        <time>2011-10-02T08:58:39Z</time>
      </trkpt>
      <trkpt lat="43.58867" lon="6.89698">
        <ele>288.0522461</ele>
        <time>2011-10-02T08:58:40Z</time>
      </trkpt>
      <trkpt lat="43.5885" lon="6.8971">
        <ele>289.4941406</ele>
        <time>2011-10-02T08:58:49Z</time>
      </trkpt>
      <trkpt lat="43.58836" lon="6.8971">
        <ele>291.416748</ele>
        <time>2011-10-02T08:58:56Z</time>
      </trkpt>
      <trkpt lat="43.58823" lon="6.89706">
        <ele>292.3781738</ele>
        <time>2011-10-02T08:59:03Z</time>
      </trkpt>
      <trkpt lat="43.5881" lon="6.89703">
        <ele>292.8587646</ele>
        <time>2011-10-02T08:59:11Z</time>
      </trkpt>
      <trkpt lat="43.58796" lon="6.89705">
        <ele>294.3007813</ele>
        <time>2011-10-02T08:59:19Z</time>
      </trkpt>
      <trkpt lat="43.58783" lon="6.89711">
        <ele>295.2619629</ele>
        <time>2011-10-02T08:59:27Z</time>
      </trkpt>
      <trkpt lat="43.58771" lon="6.89719">
        <ele>298.1461182</ele>
        <time>2011-10-02T08:59:35Z</time>
      </trkpt>
      <trkpt lat="43.58769" lon="6.89723">
        <ele>298.626709</ele>
        <time>2011-10-02T08:59:37Z</time>
      </trkpt>
      <trkpt lat="43.5877" lon="6.89731">
        <ele>299.5880127</ele>
        <time>2011-10-02T08:59:41Z</time>
      </trkpt>
      <trkpt lat="43.58772" lon="6.89732">
        <ele>300.0687256</ele>
        <time>2011-10-02T08:59:42Z</time>
      </trkpt>
      <trkpt lat="43.58784" lon="6.89743">
        <ele>302.4719238</ele>
        <time>2011-10-02T08:59:51Z</time>
      </trkpt>
      <trkpt lat="43.58792" lon="6.89754">
        <ele>302.9525146</ele>
        <time>2011-10-02T08:59:58Z</time>
      </trkpt>
      <trkpt lat="43.58794" lon="6.89767">
        <ele>303.9139404</ele>
        <time>2011-10-02T09:00:04Z</time>
      </trkpt>
      <trkpt lat="43.58787" lon="6.89776">
        <ele>304.8752441</ele>
        <time>2011-10-02T09:00:11Z</time>
      </trkpt>
      <trkpt lat="43.5878" lon="6.89782">
        <ele>305.355957</ele>
        <time>2011-10-02T09:00:16Z</time>
      </trkpt>
      <trkpt lat="43.58777" lon="6.89786">
        <ele>305.8366699</ele>
        <time>2011-10-02T09:00:19Z</time>
      </trkpt>
      <trkpt lat="43.58769" lon="6.89789">
        <ele>306.7978516</ele>
        <time>2011-10-02T09:00:24Z</time>
      </trkpt>
      <trkpt lat="43.58761" lon="6.89803">
        <ele>308.720459</ele>
        <time>2011-10-02T09:00:33Z</time>
      </trkpt>
      <trkpt lat="43.58759" lon="6.89806">
        <ele>309.2011719</ele>
        <time>2011-10-02T09:00:38Z</time>
      </trkpt>
      <trkpt lat="43.58758" lon="6.89806">
        <ele>309.6818848</ele>
        <time>2011-10-02T09:00:51Z</time>
      </trkpt>
      <trkpt lat="43.58757" lon="6.89807">
        <ele>309.2011719</ele>
        <time>2011-10-02T09:01:04Z</time>
      </trkpt>
      <trkpt lat="43.58757" lon="6.89806">
        <ele>308.720459</ele>
        <time>2011-10-02T09:01:11Z</time>
      </trkpt>
      <trkpt lat="43.58757" lon="6.89802">
        <ele>307.7592773</ele>
        <time>2011-10-02T09:01:14Z</time>
      </trkpt>
      <trkpt lat="43.58755" lon="6.89806">
        <ele>309.2011719</ele>
        <time>2011-10-02T09:01:19Z</time>
      </trkpt>
      <trkpt lat="43.58752" lon="6.89819">
        <ele>310.1624756</ele>
        <time>2011-10-02T09:01:28Z</time>
      </trkpt>
      <trkpt lat="43.58752" lon="6.89821">
        <ele>310.1624756</ele>
        <time>2011-10-02T09:01:34Z</time>
      </trkpt>
      <trkpt lat="43.5875" lon="6.89828">
        <ele>311.6044922</ele>
        <time>2011-10-02T09:01:44Z</time>
      </trkpt>
      <trkpt lat="43.58743" lon="6.89843">
        <ele>313.5272217</ele>
        <time>2011-10-02T09:01:55Z</time>
      </trkpt>
      <trkpt lat="43.5874" lon="6.89847">
        <ele>313.5272217</ele>
        <time>2011-10-02T09:01:59Z</time>
      </trkpt>
      <trkpt lat="43.5874" lon="6.89851">
        <ele>314.4884033</ele>
        <time>2011-10-02T09:02:05Z</time>
      </trkpt>
      <trkpt lat="43.58739" lon="6.89849">
        <ele>314.0078125</ele>
        <time>2011-10-02T09:03:57Z</time>
      </trkpt>
      <trkpt lat="43.58738" lon="6.89848">
        <ele>314.4884033</ele>
        <time>2011-10-02T09:03:59Z</time>
      </trkpt>
      <trkpt lat="43.58736" lon="6.89844">
        <ele>314.9691162</ele>
        <time>2011-10-02T09:04:02Z</time>
      </trkpt>
      <trkpt lat="43.58732" lon="6.89825">
        <ele>316.4110107</ele>
        <time>2011-10-02T09:04:11Z</time>
      </trkpt>
      <trkpt lat="43.58725" lon="6.89818">
        <ele>317.3724365</ele>
        <time>2011-10-02T09:04:17Z</time>
      </trkpt>
      <trkpt lat="43.58713" lon="6.89821">
        <ele>318.3336182</ele>
        <time>2011-10-02T09:04:24Z</time>
      </trkpt>
      <trkpt lat="43.58705" lon="6.89829">
        <ele>318.8143311</ele>
        <time>2011-10-02T09:04:30Z</time>
      </trkpt>
      <trkpt lat="43.58697" lon="6.89843">
        <ele>320.2563477</ele>
        <time>2011-10-02T09:04:38Z</time>
      </trkpt>
      <trkpt lat="43.58688" lon="6.89857">
        <ele>321.2177734</ele>
        <time>2011-10-02T09:04:46Z</time>
      </trkpt>
      <trkpt lat="43.58683" lon="6.89871">
        <ele>323.1403809</ele>
        <time>2011-10-02T09:04:53Z</time>
      </trkpt>
      <trkpt lat="43.58676" lon="6.89888">
        <ele>324.1015625</ele>
        <time>2011-10-02T09:05:01Z</time>
      </trkpt>
      <trkpt lat="43.58666" lon="6.89906">
        <ele>325.0629883</ele>
        <time>2011-10-02T09:05:10Z</time>
      </trkpt>
      <trkpt lat="43.58653" lon="6.89927">
        <ele>325.5435791</ele>
        <time>2011-10-02T09:05:20Z</time>
      </trkpt>
      <trkpt lat="43.58638" lon="6.89947">
        <ele>326.0241699</ele>
        <time>2011-10-02T09:05:30Z</time>
      </trkpt>
      <trkpt lat="43.58621" lon="6.89967">
        <ele>327.4661865</ele>
        <time>2011-10-02T09:05:39Z</time>
      </trkpt>
      <trkpt lat="43.5861" lon="6.89988">
        <ele>327.9467773</ele>
        <time>2011-10-02T09:05:47Z</time>
      </trkpt>
      <trkpt lat="43.58599" lon="6.90019">
        <ele>328.9083252</ele>
        <time>2011-10-02T09:05:57Z</time>
      </trkpt>
      <trkpt lat="43.58593" lon="6.90055">
        <ele>328.9083252</ele>
        <time>2011-10-02T09:06:06Z</time>
      </trkpt>
      <trkpt lat="43.58582" lon="6.90071">
        <ele>328.4276123</ele>
        <time>2011-10-02T09:06:11Z</time>
      </trkpt>
      <trkpt lat="43.58567" lon="6.90075">
        <ele>329.388916</ele>
        <time>2011-10-02T09:06:16Z</time>
      </trkpt>
      <trkpt lat="43.58544" lon="6.90079">
        <ele>329.388916</ele>
        <time>2011-10-02T09:06:23Z</time>
      </trkpt>
      <trkpt lat="43.58531" lon="6.90084">
        <ele>328.9083252</ele>
        <time>2011-10-02T09:06:28Z</time>
      </trkpt>
      <trkpt lat="43.58515" lon="6.90079">
        <ele>324.5822754</ele>
        <time>2011-10-02T09:06:31Z</time>
      </trkpt>
      <trkpt lat="43.58494" lon="6.90066">
        <ele>322.1789551</ele>
        <time>2011-10-02T09:06:34Z</time>
      </trkpt>
      <trkpt lat="43.58465" lon="6.90063">
        <ele>320.2563477</ele>
        <time>2011-10-02T09:06:38Z</time>
      </trkpt>
      <trkpt lat="43.58437" lon="6.90073">
        <ele>316.8917236</ele>
        <time>2011-10-02T09:06:42Z</time>
      </trkpt>
      <trkpt lat="43.58414" lon="6.90067">
        <ele>314.4884033</ele>
        <time>2011-10-02T09:06:46Z</time>
      </trkpt>
      <trkpt lat="43.58409" lon="6.90062">
        <ele>314.4884033</ele>
        <time>2011-10-02T09:06:47Z</time>
      </trkpt>
      <trkpt lat="43.584" lon="6.90052">
        <ele>316.4110107</ele>
        <time>2011-10-02T09:06:49Z</time>
      </trkpt>
      <trkpt lat="43.58385" lon="6.9003">
        <ele>318.8143311</ele>
        <time>2011-10-02T09:06:54Z</time>
      </trkpt>
      <trkpt lat="43.58379" lon="6.90024">
        <ele>319.7756348</ele>
        <time>2011-10-02T09:06:58Z</time>
      </trkpt>
      <trkpt lat="43.58373" lon="6.90016">
        <ele>320.7370605</ele>
        <time>2011-10-02T09:07:03Z</time>
      </trkpt>
      <trkpt lat="43.58365" lon="6.90014">
        <ele>322.1789551</ele>
        <time>2011-10-02T09:07:08Z</time>
      </trkpt>
      <trkpt lat="43.58362" lon="6.90012">
        <ele>322.659668</ele>
        <time>2011-10-02T09:07:10Z</time>
      </trkpt>
      <trkpt lat="43.58351" lon="6.90009">
        <ele>324.1015625</ele>
        <time>2011-10-02T09:07:17Z</time>
      </trkpt>
      <trkpt lat="43.58342" lon="6.90006">
        <ele>326.5048828</ele>
        <time>2011-10-02T09:07:23Z</time>
      </trkpt>
      <trkpt lat="43.58332" lon="6.90002">
        <ele>328.4276123</ele>
        <time>2011-10-02T09:07:30Z</time>
      </trkpt>
      <trkpt lat="43.58324" lon="6.89993">
        <ele>328.9083252</ele>
        <time>2011-10-02T09:07:37Z</time>
      </trkpt>
      <trkpt lat="43.58322" lon="6.89989">
        <ele>329.388916</ele>
        <time>2011-10-02T09:07:42Z</time>
      </trkpt>
      <trkpt lat="43.58321" lon="6.89987">
        <ele>329.388916</ele>
        <time>2011-10-02T09:07:48Z</time>
      </trkpt>
      <trkpt lat="43.58321" lon="6.89989">
        <ele>330.3502197</ele>
        <time>2011-10-02T09:08:05Z</time>
      </trkpt>
      <trkpt lat="43.5832" lon="6.89983">
        <ele>331.3115234</ele>
        <time>2011-10-02T09:08:11Z</time>
      </trkpt>
      <trkpt lat="43.58317" lon="6.89978">
        <ele>332.2728271</ele>
        <time>2011-10-02T09:08:16Z</time>
      </trkpt>
      <trkpt lat="43.58315" lon="6.89972">
        <ele>333.2341309</ele>
        <time>2011-10-02T09:08:22Z</time>
      </trkpt>
      <trkpt lat="43.58313" lon="6.89968">
        <ele>333.7147217</ele>
        <time>2011-10-02T09:08:25Z</time>
      </trkpt>
      <trkpt lat="43.58308" lon="6.89959">
        <ele>335.1567383</ele>
        <time>2011-10-02T09:08:34Z</time>
      </trkpt>
      <trkpt lat="43.58302" lon="6.89948">
        <ele>337.0794678</ele>
        <time>2011-10-02T09:08:44Z</time>
      </trkpt>
      <trkpt lat="43.58296" lon="6.89938">
        <ele>339.0020752</ele>
        <time>2011-10-02T09:08:53Z</time>
      </trkpt>
      <trkpt lat="43.58291" lon="6.89924">
        <ele>339.9633789</ele>
        <time>2011-10-02T09:09:04Z</time>
      </trkpt>
      <trkpt lat="43.58287" lon="6.8991">
        <ele>343.3278809</ele>
        <time>2011-10-02T09:09:15Z</time>
      </trkpt>
      <trkpt lat="43.58287" lon="6.89909">
        <ele>343.3278809</ele>
        <time>2011-10-02T09:09:22Z</time>
      </trkpt>
      <trkpt lat="43.58287" lon="6.89909">
        <ele>343.8085938</ele>
        <time>2011-10-02T09:09:34Z</time>
      </trkpt>
      <trkpt lat="43.58285" lon="6.899">
        <ele>344.2894287</ele>
        <time>2011-10-02T09:09:41Z</time>
      </trkpt>
      <trkpt lat="43.58281" lon="6.89889">
        <ele>344.7700195</ele>
        <time>2011-10-02T09:09:51Z</time>
      </trkpt>
      <trkpt lat="43.58279" lon="6.89883">
        <ele>345.7313232</ele>
        <time>2011-10-02T09:09:56Z</time>
      </trkpt>
      <trkpt lat="43.58271" lon="6.89876">
        <ele>348.1346436</ele>
        <time>2011-10-02T09:10:06Z</time>
      </trkpt>
      <trkpt lat="43.58264" lon="6.89873">
        <ele>350.5378418</ele>
        <time>2011-10-02T09:10:15Z</time>
      </trkpt>
      <trkpt lat="43.58258" lon="6.89869">
        <ele>351.4991455</ele>
        <time>2011-10-02T09:10:23Z</time>
      </trkpt>
      <trkpt lat="43.58252" lon="6.89864">
        <ele>352.4605713</ele>
        <time>2011-10-02T09:10:32Z</time>
      </trkpt>
      <trkpt lat="43.58245" lon="6.89859">
        <ele>354.3831787</ele>
        <time>2011-10-02T09:10:41Z</time>
      </trkpt>
      <trkpt lat="43.58239" lon="6.89855">
        <ele>356.3057861</ele>
        <time>2011-10-02T09:10:50Z</time>
      </trkpt>
      <trkpt lat="43.58234" lon="6.89854">
        <ele>357.7478027</ele>
        <time>2011-10-02T09:10:57Z</time>
      </trkpt>
      <trkpt lat="43.58229" lon="6.89851">
        <ele>358.7089844</ele>
        <time>2011-10-02T09:11:13Z</time>
      </trkpt>
      <trkpt lat="43.58222" lon="6.89849">
        <ele>359.6704102</ele>
        <time>2011-10-02T09:11:21Z</time>
      </trkpt>
      <trkpt lat="43.58214" lon="6.89847">
        <ele>361.5931396</ele>
        <time>2011-10-02T09:11:31Z</time>
      </trkpt>
      <trkpt lat="43.58204" lon="6.89844">
        <ele>363.5157471</ele>
        <time>2011-10-02T09:11:42Z</time>
      </trkpt>
      <trkpt lat="43.58196" lon="6.8984">
        <ele>365.9189453</ele>
        <time>2011-10-02T09:11:52Z</time>
      </trkpt>
      <trkpt lat="43.5819" lon="6.89838">
        <ele>367.8415527</ele>
        <time>2011-10-02T09:12:01Z</time>
      </trkpt>
      <trkpt lat="43.58182" lon="6.89833">
        <ele>370.7255859</ele>
        <time>2011-10-02T09:12:10Z</time>
      </trkpt>
      <trkpt lat="43.58181" lon="6.89833">
        <ele>370.7255859</ele>
        <time>2011-10-02T09:12:18Z</time>
      </trkpt>
      <trkpt lat="43.58178" lon="6.8983">
        <ele>370.7255859</ele>
        <time>2011-10-02T09:12:33Z</time>
      </trkpt>
      <trkpt lat="43.58171" lon="6.89829">
        <ele>371.2062988</ele>
        <time>2011-10-02T09:12:42Z</time>
      </trkpt>
      <trkpt lat="43.58167" lon="6.89831">
        <ele>372.1674805</ele>
        <time>2011-10-02T09:12:49Z</time>
      </trkpt>
      <trkpt lat="43.58163" lon="6.89831">
        <ele>372.6481934</ele>
        <time>2011-10-02T09:12:58Z</time>
      </trkpt>
      <trkpt lat="43.58157" lon="6.89832">
        <ele>375.0515137</ele>
        <time>2011-10-02T09:13:07Z</time>
      </trkpt>
      <trkpt lat="43.58151" lon="6.89833">
        <ele>377.454834</ele>
        <time>2011-10-02T09:13:16Z</time>
      </trkpt>
      <trkpt lat="43.58146" lon="6.89833">
        <ele>377.454834</ele>
        <time>2011-10-02T09:13:24Z</time>
      </trkpt>
      <trkpt lat="43.58139" lon="6.89835">
        <ele>378.8968506</ele>
        <time>2011-10-02T09:13:32Z</time>
      </trkpt>
      <trkpt lat="43.58137" lon="6.89837">
        <ele>379.3774414</ele>
        <time>2011-10-02T09:13:35Z</time>
      </trkpt>
      <trkpt lat="43.58128" lon="6.89845">
        <ele>378.8968506</ele>
        <time>2011-10-02T09:13:45Z</time>
      </trkpt>
      <trkpt lat="43.58122" lon="6.89849">
        <ele>380.3387451</ele>
        <time>2011-10-02T09:13:53Z</time>
      </trkpt>
      <trkpt lat="43.58118" lon="6.89854">
        <ele>380.819458</ele>
        <time>2011-10-02T09:13:59Z</time>
      </trkpt>
      <trkpt lat="43.58112" lon="6.89859">
        <ele>381.7806396</ele>
        <time>2011-10-02T09:14:07Z</time>
      </trkpt>
      <trkpt lat="43.58107" lon="6.89865">
        <ele>383.2226563</ele>
        <time>2011-10-02T09:14:14Z</time>
      </trkpt>
      <trkpt lat="43.58103" lon="6.89869">
        <ele>384.184082</ele>
        <time>2011-10-02T09:14:22Z</time>
      </trkpt>
      <trkpt lat="43.58098" lon="6.89874">
        <ele>385.1453857</ele>
        <time>2011-10-02T09:14:30Z</time>
      </trkpt>
      <trkpt lat="43.58095" lon="6.89877">
        <ele>385.6259766</ele>
        <time>2011-10-02T09:14:35Z</time>
      </trkpt>
      <trkpt lat="43.58087" lon="6.89881">
        <ele>386.1066895</ele>
        <time>2011-10-02T09:14:41Z</time>
      </trkpt>
      <trkpt lat="43.58078" lon="6.8989">
        <ele>387.0679932</ele>
        <time>2011-10-02T09:14:49Z</time>
      </trkpt>
      <trkpt lat="43.58069" lon="6.89899">
        <ele>387.0679932</ele>
        <time>2011-10-02T09:14:56Z</time>
      </trkpt>
      <trkpt lat="43.5806" lon="6.89907">
        <ele>387.548584</ele>
        <time>2011-10-02T09:15:04Z</time>
      </trkpt>
      <trkpt lat="43.58051" lon="6.89907">
        <ele>388.9906006</ele>
        <time>2011-10-02T09:15:11Z</time>
      </trkpt>
      <trkpt lat="43.5805" lon="6.89907">
        <ele>388.9906006</ele>
        <time>2011-10-02T09:15:12Z</time>
      </trkpt>
      <trkpt lat="43.58045" lon="6.89905">
        <ele>389.9519043</ele>
        <time>2011-10-02T09:15:16Z</time>
      </trkpt>
      <trkpt lat="43.58038" lon="6.89904">
        <ele>390.913208</ele>
        <time>2011-10-02T09:15:21Z</time>
      </trkpt>
      <trkpt lat="43.58028" lon="6.89902">
        <ele>391.8745117</ele>
        <time>2011-10-02T09:15:29Z</time>
      </trkpt>
      <trkpt lat="43.58018" lon="6.89904">
        <ele>392.3553467</ele>
        <time>2011-10-02T09:15:37Z</time>
      </trkpt>
      <trkpt lat="43.58012" lon="6.89906">
        <ele>393.3165283</ele>
        <time>2011-10-02T09:15:42Z</time>
      </trkpt>
      <trkpt lat="43.58008" lon="6.89907">
        <ele>394.2779541</ele>
        <time>2011-10-02T09:15:48Z</time>
      </trkpt>
      <trkpt lat="43.58005" lon="6.89909">
        <ele>394.7585449</ele>
        <time>2011-10-02T09:15:54Z</time>
      </trkpt>
      <trkpt lat="43.58" lon="6.89911">
        <ele>395.2391357</ele>
        <time>2011-10-02T09:16:01Z</time>
      </trkpt>
      <trkpt lat="43.57993" lon="6.8991">
        <ele>395.7198486</ele>
        <time>2011-10-02T09:16:08Z</time>
      </trkpt>
      <trkpt lat="43.57989" lon="6.89909">
        <ele>396.6811523</ele>
        <time>2011-10-02T09:16:17Z</time>
      </trkpt>
      <trkpt lat="43.57984" lon="6.89909">
        <ele>397.1617432</ele>
        <time>2011-10-02T09:16:24Z</time>
      </trkpt>
      <trkpt lat="43.57982" lon="6.89909">
        <ele>398.6037598</ele>
        <time>2011-10-02T09:16:27Z</time>
      </trkpt>
      <trkpt lat="43.57977" lon="6.89912">
        <ele>401.0070801</ele>
        <time>2011-10-02T09:16:37Z</time>
      </trkpt>
      <trkpt lat="43.57975" lon="6.89913">
        <ele>401.9685059</ele>
        <time>2011-10-02T09:16:43Z</time>
      </trkpt>
      <trkpt lat="43.57973" lon="6.89913">
        <ele>402.4490967</ele>
        <time>2011-10-02T09:16:48Z</time>
      </trkpt>
      <trkpt lat="43.57967" lon="6.89918">
        <ele>403.8911133</ele>
        <time>2011-10-02T09:16:54Z</time>
      </trkpt>
      <trkpt lat="43.57962" lon="6.89923">
        <ele>404.3717041</ele>
        <time>2011-10-02T09:17:01Z</time>
      </trkpt>
      <trkpt lat="43.5796" lon="6.89925">
        <ele>404.3717041</ele>
        <time>2011-10-02T09:17:04Z</time>
      </trkpt>
      <trkpt lat="43.57954" lon="6.89935">
        <ele>406.2943115</ele>
        <time>2011-10-02T09:17:13Z</time>
      </trkpt>
      <trkpt lat="43.5795" lon="6.89942">
        <ele>405.8137207</ele>
        <time>2011-10-02T09:17:19Z</time>
      </trkpt>
      <trkpt lat="43.5794" lon="6.89957">
        <ele>405.8137207</ele>
        <time>2011-10-02T09:17:26Z</time>
      </trkpt>
      <trkpt lat="43.57926" lon="6.89973">
        <ele>404.3717041</ele>
        <time>2011-10-02T09:17:33Z</time>
      </trkpt>
      <trkpt lat="43.57924" lon="6.89975">
        <ele>404.3717041</ele>
        <time>2011-10-02T09:17:34Z</time>
      </trkpt>
      <trkpt lat="43.57903" lon="6.89984">
        <ele>404.3717041</ele>
        <time>2011-10-02T09:17:41Z</time>
      </trkpt>
      <trkpt lat="43.57886" lon="6.89994">
        <ele>404.3717041</ele>
        <time>2011-10-02T09:17:47Z</time>
      </trkpt>
      <trkpt lat="43.57863" lon="6.90004">
        <ele>403.4104004</ele>
        <time>2011-10-02T09:17:53Z</time>
      </trkpt>
      <trkpt lat="43.57849" lon="6.90014">
        <ele>403.4104004</ele>
        <time>2011-10-02T09:17:57Z</time>
      </trkpt>
      <trkpt lat="43.57833" lon="6.90034">
        <ele>403.8911133</ele>
        <time>2011-10-02T09:18:02Z</time>
      </trkpt>
      <trkpt lat="43.5782" lon="6.90059">
        <ele>403.8911133</ele>
        <time>2011-10-02T09:18:09Z</time>
      </trkpt>
      <trkpt lat="43.57818" lon="6.90063">
        <ele>403.8911133</ele>
        <time>2011-10-02T09:18:13Z</time>
      </trkpt>
      <trkpt lat="43.57814" lon="6.90076">
        <ele>403.4104004</ele>
        <time>2011-10-02T09:18:18Z</time>
      </trkpt>
      <trkpt lat="43.57813" lon="6.90097">
        <ele>401.9685059</ele>
        <time>2011-10-02T09:18:22Z</time>
      </trkpt>
      <trkpt lat="43.57808" lon="6.90122">
        <ele>403.4104004</ele>
        <time>2011-10-02T09:18:27Z</time>
      </trkpt>
      <trkpt lat="43.57795" lon="6.90143">
        <ele>404.3717041</ele>
        <time>2011-10-02T09:18:33Z</time>
      </trkpt>
      <trkpt lat="43.57785" lon="6.9015">
        <ele>405.8137207</ele>
        <time>2011-10-02T09:18:38Z</time>
      </trkpt>
      <trkpt lat="43.57769" lon="6.90153">
        <ele>406.7749023</ele>
        <time>2011-10-02T09:18:45Z</time>
      </trkpt>
      <trkpt lat="43.5775" lon="6.90158">
        <ele>406.2943115</ele>
        <time>2011-10-02T09:18:53Z</time>
      </trkpt>
      <trkpt lat="43.57738" lon="6.90167">
        <ele>407.7363281</ele>
        <time>2011-10-02T09:18:58Z</time>
      </trkpt>
      <trkpt lat="43.57729" lon="6.90188">
        <ele>407.7363281</ele>
        <time>2011-10-02T09:19:04Z</time>
      </trkpt>
      <trkpt lat="43.57712" lon="6.90213">
        <ele>406.2943115</ele>
        <time>2011-10-02T09:19:11Z</time>
      </trkpt>
      <trkpt lat="43.57697" lon="6.90223">
        <ele>406.7749023</ele>
        <time>2011-10-02T09:19:16Z</time>
      </trkpt>
      <trkpt lat="43.57686" lon="6.9023">
        <ele>408.217041</ele>
        <time>2011-10-02T09:19:21Z</time>
      </trkpt>
      <trkpt lat="43.57678" lon="6.90231">
        <ele>408.6976318</ele>
        <time>2011-10-02T09:19:26Z</time>
      </trkpt>
      <trkpt lat="43.57666" lon="6.90232">
        <ele>409.6590576</ele>
        <time>2011-10-02T09:19:32Z</time>
      </trkpt>
      <trkpt lat="43.57656" lon="6.90233">
        <ele>411.581665</ele>
        <time>2011-10-02T09:19:38Z</time>
      </trkpt>
      <trkpt lat="43.57646" lon="6.90235">
        <ele>413.5042725</ele>
        <time>2011-10-02T09:19:44Z</time>
      </trkpt>
      <trkpt lat="43.57639" lon="6.90236">
        <ele>414.946167</ele>
        <time>2011-10-02T09:19:48Z</time>
      </trkpt>
      <trkpt lat="43.57628" lon="6.90236">
        <ele>415.4268799</ele>
        <time>2011-10-02T09:19:55Z</time>
      </trkpt>
      <trkpt lat="43.57623" lon="6.90234">
        <ele>416.3881836</ele>
        <time>2011-10-02T09:19:58Z</time>
      </trkpt>
      <trkpt lat="43.57611" lon="6.90238">
        <ele>416.3881836</ele>
        <time>2011-10-02T09:20:05Z</time>
      </trkpt>
      <trkpt lat="43.57597" lon="6.9025">
        <ele>416.3881836</ele>
        <time>2011-10-02T09:20:11Z</time>
      </trkpt>
      <trkpt lat="43.57576" lon="6.90272">
        <ele>415.4268799</ele>
        <time>2011-10-02T09:20:20Z</time>
      </trkpt>
      <trkpt lat="43.57555" lon="6.90281">
        <ele>416.3881836</ele>
        <time>2011-10-02T09:20:28Z</time>
      </trkpt>
      <trkpt lat="43.57529" lon="6.9029">
        <ele>416.8688965</ele>
        <time>2011-10-02T09:20:38Z</time>
      </trkpt>
      <trkpt lat="43.57512" lon="6.90297">
        <ele>417.8302002</ele>
        <time>2011-10-02T09:20:45Z</time>
      </trkpt>
      <trkpt lat="43.57493" lon="6.90309">
        <ele>418.7915039</ele>
        <time>2011-10-02T09:20:54Z</time>
      </trkpt>
      <trkpt lat="43.57477" lon="6.90327">
        <ele>418.7915039</ele>
        <time>2011-10-02T09:21:03Z</time>
      </trkpt>
      <trkpt lat="43.57463" lon="6.90348">
        <ele>420.2333984</ele>
        <time>2011-10-02T09:21:11Z</time>
      </trkpt>
      <trkpt lat="43.57449" lon="6.90366">
        <ele>421.675415</ele>
        <time>2011-10-02T09:21:18Z</time>
      </trkpt>
      <trkpt lat="43.57438" lon="6.90381">
        <ele>422.1560059</ele>
        <time>2011-10-02T09:21:24Z</time>
      </trkpt>
      <trkpt lat="43.57427" lon="6.90399">
        <ele>423.5980225</ele>
        <time>2011-10-02T09:21:31Z</time>
      </trkpt>
      <trkpt lat="43.57415" lon="6.90417">
        <ele>425.0401611</ele>
        <time>2011-10-02T09:21:38Z</time>
      </trkpt>
      <trkpt lat="43.574" lon="6.9044">
        <ele>425.0401611</ele>
        <time>2011-10-02T09:21:47Z</time>
      </trkpt>
      <trkpt lat="43.57385" lon="6.90465">
        <ele>426.0013428</ele>
        <time>2011-10-02T09:21:56Z</time>
      </trkpt>
      <trkpt lat="43.57372" lon="6.90487">
        <ele>426.4820557</ele>
        <time>2011-10-02T09:22:05Z</time>
      </trkpt>
      <trkpt lat="43.57363" lon="6.90496">
        <ele>427.4433594</ele>
        <time>2011-10-02T09:22:10Z</time>
      </trkpt>
      <trkpt lat="43.57354" lon="6.90502">
        <ele>427.9239502</ele>
        <time>2011-10-02T09:22:15Z</time>
      </trkpt>
      <trkpt lat="43.5735" lon="6.90505">
        <ele>428.885376</ele>
        <time>2011-10-02T09:22:17Z</time>
      </trkpt>
      <trkpt lat="43.57328" lon="6.90511">
        <ele>429.3659668</ele>
        <time>2011-10-02T09:22:26Z</time>
      </trkpt>
      <trkpt lat="43.57306" lon="6.90509">
        <ele>430.8079834</ele>
        <time>2011-10-02T09:22:35Z</time>
      </trkpt>
      <trkpt lat="43.57292" lon="6.90506">
        <ele>431.769165</ele>
        <time>2011-10-02T09:22:41Z</time>
      </trkpt>
      <trkpt lat="43.5728" lon="6.90507">
        <ele>431.769165</ele>
        <time>2011-10-02T09:22:46Z</time>
      </trkpt>
      <trkpt lat="43.57257" lon="6.90511">
        <ele>432.7307129</ele>
        <time>2011-10-02T09:22:55Z</time>
      </trkpt>
      <trkpt lat="43.5724" lon="6.9051">
        <ele>431.769165</ele>
        <time>2011-10-02T09:23:02Z</time>
      </trkpt>
      <trkpt lat="43.57224" lon="6.90498">
        <ele>433.6918945</ele>
        <time>2011-10-02T09:23:09Z</time>
      </trkpt>
      <trkpt lat="43.57202" lon="6.90487">
        <ele>435.1339111</ele>
        <time>2011-10-02T09:23:18Z</time>
      </trkpt>
      <trkpt lat="43.57184" lon="6.90487">
        <ele>435.614502</ele>
        <time>2011-10-02T09:23:25Z</time>
      </trkpt>
      <trkpt lat="43.57162" lon="6.90487">
        <ele>436.5759277</ele>
        <time>2011-10-02T09:23:33Z</time>
      </trkpt>
      <trkpt lat="43.57141" lon="6.90483">
        <ele>437.5371094</ele>
        <time>2011-10-02T09:23:41Z</time>
      </trkpt>
      <trkpt lat="43.57124" lon="6.90475">
        <ele>438.4985352</ele>
        <time>2011-10-02T09:23:48Z</time>
      </trkpt>
      <trkpt lat="43.57102" lon="6.90467">
        <ele>439.4597168</ele>
        <time>2011-10-02T09:23:57Z</time>
      </trkpt>
      <trkpt lat="43.57081" lon="6.90459">
        <ele>439.9404297</ele>
        <time>2011-10-02T09:24:05Z</time>
      </trkpt>
      <trkpt lat="43.57055" lon="6.90451">
        <ele>440.9018555</ele>
        <time>2011-10-02T09:24:15Z</time>
      </trkpt>
      <trkpt lat="43.57035" lon="6.90443">
        <ele>442.8244629</ele>
        <time>2011-10-02T09:24:23Z</time>
      </trkpt>
      <trkpt lat="43.57016" lon="6.90432">
        <ele>442.3438721</ele>
        <time>2011-10-02T09:24:31Z</time>
      </trkpt>
      <trkpt lat="43.57002" lon="6.90417">
        <ele>443.3050537</ele>
        <time>2011-10-02T09:24:38Z</time>
      </trkpt>
      <trkpt lat="43.56986" lon="6.90399">
        <ele>445.2276611</ele>
        <time>2011-10-02T09:24:47Z</time>
      </trkpt>
      <trkpt lat="43.56972" lon="6.90393">
        <ele>445.2276611</ele>
        <time>2011-10-02T09:24:55Z</time>
      </trkpt>
      <trkpt lat="43.56964" lon="6.90395">
        <ele>446.1890869</ele>
        <time>2011-10-02T09:25:01Z</time>
      </trkpt>
      <trkpt lat="43.56964" lon="6.90394">
        <ele>445.708374</ele>
        <time>2011-10-02T09:25:12Z</time>
      </trkpt>
      <trkpt lat="43.56964" lon="6.90395">
        <ele>446.1890869</ele>
        <time>2011-10-02T09:25:38Z</time>
      </trkpt>
      <trkpt lat="43.56951" lon="6.90405">
        <ele>446.6696777</ele>
        <time>2011-10-02T09:25:45Z</time>
      </trkpt>
      <trkpt lat="43.56934" lon="6.90424">
        <ele>447.1502686</ele>
        <time>2011-10-02T09:25:54Z</time>
      </trkpt>
      <trkpt lat="43.5692" lon="6.9044">
        <ele>447.6309814</ele>
        <time>2011-10-02T09:26:01Z</time>
      </trkpt>
      <trkpt lat="43.56902" lon="6.90457">
        <ele>448.1118164</ele>
        <time>2011-10-02T09:26:09Z</time>
      </trkpt>
      <trkpt lat="43.56881" lon="6.90474">
        <ele>449.5537109</ele>
        <time>2011-10-02T09:26:18Z</time>
      </trkpt>
      <trkpt lat="43.56865" lon="6.90488">
        <ele>450.0344238</ele>
        <time>2011-10-02T09:26:26Z</time>
      </trkpt>
      <trkpt lat="43.56853" lon="6.90511">
        <ele>451.4763184</ele>
        <time>2011-10-02T09:26:34Z</time>
      </trkpt>
      <trkpt lat="43.56839" lon="6.90524">
        <ele>452.4376221</ele>
        <time>2011-10-02T09:26:40Z</time>
      </trkpt>
      <trkpt lat="43.56818" lon="6.90528">
        <ele>452.4376221</ele>
        <time>2011-10-02T09:26:48Z</time>
      </trkpt>
      <trkpt lat="43.56789" lon="6.90526">
        <ele>453.8796387</ele>
        <time>2011-10-02T09:26:58Z</time>
      </trkpt>
      <trkpt lat="43.56771" lon="6.90521">
        <ele>454.3602295</ele>
        <time>2011-10-02T09:27:05Z</time>
      </trkpt>
      <trkpt lat="43.56753" lon="6.9051">
        <ele>454.3602295</ele>
        <time>2011-10-02T09:27:12Z</time>
      </trkpt>
      <trkpt lat="43.5673" lon="6.90498">
        <ele>455.3215332</ele>
        <time>2011-10-02T09:27:21Z</time>
      </trkpt>
      <trkpt lat="43.56706" lon="6.90492">
        <ele>455.8022461</ele>
        <time>2011-10-02T09:27:30Z</time>
      </trkpt>
      <trkpt lat="43.56685" lon="6.90491">
        <ele>456.7635498</ele>
        <time>2011-10-02T09:27:38Z</time>
      </trkpt>
      <trkpt lat="43.56667" lon="6.90488">
        <ele>458.2055664</ele>
        <time>2011-10-02T09:27:45Z</time>
      </trkpt>
      <trkpt lat="43.56653" lon="6.90482">
        <ele>459.647583</ele>
        <time>2011-10-02T09:27:50Z</time>
      </trkpt>
      <trkpt lat="43.56633" lon="6.9047">
        <ele>460.6087646</ele>
        <time>2011-10-02T09:27:58Z</time>
      </trkpt>
      <trkpt lat="43.56618" lon="6.90456">
        <ele>460.1281738</ele>
        <time>2011-10-02T09:28:04Z</time>
      </trkpt>
      <trkpt lat="43.56612" lon="6.90449">
        <ele>459.1668701</ele>
        <time>2011-10-02T09:28:06Z</time>
      </trkpt>
      <trkpt lat="43.56607" lon="6.9044">
        <ele>458.6861572</ele>
        <time>2011-10-02T09:28:08Z</time>
      </trkpt>
      <trkpt lat="43.56594" lon="6.90422">
        <ele>458.6861572</ele>
        <time>2011-10-02T09:28:13Z</time>
      </trkpt>
      <trkpt lat="43.56591" lon="6.90416">
        <ele>458.6861572</ele>
        <time>2011-10-02T09:28:17Z</time>
      </trkpt>
      <trkpt lat="43.56591" lon="6.90415">
        <ele>458.2055664</ele>
        <time>2011-10-02T09:28:25Z</time>
      </trkpt>
      <trkpt lat="43.56588" lon="6.9042">
        <ele>458.6861572</ele>
        <time>2011-10-02T09:31:16Z</time>
      </trkpt>
      <trkpt lat="43.56587" lon="6.9042">
        <ele>458.6861572</ele>
        <time>2011-10-02T09:31:19Z</time>
      </trkpt>
      <trkpt lat="43.56575" lon="6.90418">
        <ele>457.7249756</ele>
        <time>2011-10-02T09:31:24Z</time>
      </trkpt>
      <trkpt lat="43.56551" lon="6.90413">
        <ele>457.2442627</ele>
        <time>2011-10-02T09:31:30Z</time>
      </trkpt>
      <trkpt lat="43.56538" lon="6.9041">
        <ele>456.7635498</ele>
        <time>2011-10-02T09:31:33Z</time>
      </trkpt>
      <trkpt lat="43.56506" lon="6.90416">
        <ele>456.282959</ele>
        <time>2011-10-02T09:31:40Z</time>
      </trkpt>
      <trkpt lat="43.56497" lon="6.9042">
        <ele>456.7635498</ele>
        <time>2011-10-02T09:31:42Z</time>
      </trkpt>
      <trkpt lat="43.56468" lon="6.90445">
        <ele>455.3215332</ele>
        <time>2011-10-02T09:31:49Z</time>
      </trkpt>
      <trkpt lat="43.56441" lon="6.90485">
        <ele>454.3602295</ele>
        <time>2011-10-02T09:31:56Z</time>
      </trkpt>
      <trkpt lat="43.5643" lon="6.90507">
        <ele>452.4376221</ele>
        <time>2011-10-02T09:31:59Z</time>
      </trkpt>
      <trkpt lat="43.56399" lon="6.9056">
        <ele>450.5150146</ele>
        <time>2011-10-02T09:32:06Z</time>
      </trkpt>
      <trkpt lat="43.56374" lon="6.906">
        <ele>448.5924072</ele>
        <time>2011-10-02T09:32:11Z</time>
      </trkpt>
      <trkpt lat="43.56346" lon="6.90615">
        <ele>447.1502686</ele>
        <time>2011-10-02T09:32:15Z</time>
      </trkpt>
      <trkpt lat="43.56311" lon="6.9063">
        <ele>446.1890869</ele>
        <time>2011-10-02T09:32:20Z</time>
      </trkpt>
      <trkpt lat="43.56303" lon="6.90647">
        <ele>444.7470703</ele>
        <time>2011-10-02T09:32:22Z</time>
      </trkpt>
      <trkpt lat="43.56281" lon="6.90683">
        <ele>446.1890869</ele>
        <time>2011-10-02T09:32:27Z</time>
      </trkpt>
      <trkpt lat="43.56263" lon="6.90691">
        <ele>447.6309814</ele>
        <time>2011-10-02T09:32:31Z</time>
      </trkpt>
      <trkpt lat="43.56249" lon="6.90705">
        <ele>448.1118164</ele>
        <time>2011-10-02T09:32:35Z</time>
      </trkpt>
      <trkpt lat="43.56254" lon="6.90721">
        <ele>448.1118164</ele>
        <time>2011-10-02T09:32:38Z</time>
      </trkpt>
      <trkpt lat="43.56263" lon="6.90735">
        <ele>446.6696777</ele>
        <time>2011-10-02T09:32:41Z</time>
      </trkpt>
      <trkpt lat="43.5627" lon="6.90745">
        <ele>446.1890869</ele>
        <time>2011-10-02T09:32:43Z</time>
      </trkpt>
      <trkpt lat="43.56285" lon="6.90761">
        <ele>446.6696777</ele>
        <time>2011-10-02T09:32:47Z</time>
      </trkpt>
      <trkpt lat="43.56305" lon="6.90781">
        <ele>445.2276611</ele>
        <time>2011-10-02T09:32:53Z</time>
      </trkpt>
      <trkpt lat="43.5632" lon="6.9078">
        <ele>441.3824463</ele>
        <time>2011-10-02T09:32:58Z</time>
      </trkpt>
      <trkpt lat="43.56325" lon="6.90778">
        <ele>440.9018555</ele>
        <time>2011-10-02T09:33:00Z</time>
      </trkpt>
      <trkpt lat="43.56328" lon="6.90775">
        <ele>439.9404297</ele>
        <time>2011-10-02T09:33:02Z</time>
      </trkpt>
      <trkpt lat="43.56338" lon="6.90778">
        <ele>435.1339111</ele>
        <time>2011-10-02T09:33:05Z</time>
      </trkpt>
      <trkpt lat="43.56343" lon="6.90781">
        <ele>435.614502</ele>
        <time>2011-10-02T09:33:06Z</time>
      </trkpt>
      <trkpt lat="43.56358" lon="6.90789">
        <ele>433.2113037</ele>
        <time>2011-10-02T09:33:09Z</time>
      </trkpt>
      <trkpt lat="43.56377" lon="6.90817">
        <ele>432.25</ele>
        <time>2011-10-02T09:33:14Z</time>
      </trkpt>
      <trkpt lat="43.56378" lon="6.90841">
        <ele>431.769165</ele>
        <time>2011-10-02T09:33:17Z</time>
      </trkpt>
      <trkpt lat="43.56377" lon="6.90857">
        <ele>431.769165</ele>
        <time>2011-10-02T09:33:19Z</time>
      </trkpt>
      <trkpt lat="43.56371" lon="6.90909">
        <ele>429.8465576</ele>
        <time>2011-10-02T09:33:25Z</time>
      </trkpt>
      <trkpt lat="43.56357" lon="6.90941">
        <ele>426.9627686</ele>
        <time>2011-10-02T09:33:29Z</time>
      </trkpt>
      <trkpt lat="43.56352" lon="6.90948">
        <ele>427.4433594</ele>
        <time>2011-10-02T09:33:30Z</time>
      </trkpt>
      <trkpt lat="43.56313" lon="6.90991">
        <ele>424.5594482</ele>
        <time>2011-10-02T09:33:37Z</time>
      </trkpt>
      <trkpt lat="43.56297" lon="6.91029">
        <ele>423.1174316</ele>
        <time>2011-10-02T09:33:41Z</time>
      </trkpt>
      <trkpt lat="43.56294" lon="6.91041">
        <ele>422.6367188</ele>
        <time>2011-10-02T09:33:42Z</time>
      </trkpt>
      <trkpt lat="43.56279" lon="6.91132">
        <ele>419.7528076</ele>
        <time>2011-10-02T09:33:50Z</time>
      </trkpt>
      <trkpt lat="43.56283" lon="6.91185">
        <ele>418.7915039</ele>
        <time>2011-10-02T09:33:55Z</time>
      </trkpt>
      <trkpt lat="43.56285" lon="6.91195">
        <ele>418.7915039</ele>
        <time>2011-10-02T09:33:56Z</time>
      </trkpt>
      <trkpt lat="43.56279" lon="6.91231">
        <ele>419.7528076</ele>
        <time>2011-10-02T09:34:00Z</time>
      </trkpt>
      <trkpt lat="43.56275" lon="6.91238">
        <ele>419.7528076</ele>
        <time>2011-10-02T09:34:01Z</time>
      </trkpt>
      <trkpt lat="43.56259" lon="6.91264">
        <ele>419.7528076</ele>
        <time>2011-10-02T09:34:05Z</time>
      </trkpt>
      <trkpt lat="43.5625" lon="6.913">
        <ele>420.2333984</ele>
        <time>2011-10-02T09:34:10Z</time>
      </trkpt>
      <trkpt lat="43.56257" lon="6.91327">
        <ele>419.7528076</ele>
        <time>2011-10-02T09:34:14Z</time>
      </trkpt>
      <trkpt lat="43.5626" lon="6.91333">
        <ele>420.2333984</ele>
        <time>2011-10-02T09:34:15Z</time>
      </trkpt>
      <trkpt lat="43.56283" lon="6.91379">
        <ele>418.7915039</ele>
        <time>2011-10-02T09:34:23Z</time>
      </trkpt>
      <trkpt lat="43.56299" lon="6.91399">
        <ele>417.3496094</ele>
        <time>2011-10-02T09:34:27Z</time>
      </trkpt>
      <trkpt lat="43.5631" lon="6.9142">
        <ele>414.946167</ele>
        <time>2011-10-02T09:34:30Z</time>
      </trkpt>
      <trkpt lat="43.56312" lon="6.9144">
        <ele>413.9848633</ele>
        <time>2011-10-02T09:34:32Z</time>
      </trkpt>
      <trkpt lat="43.56309" lon="6.91461">
        <ele>411.581665</ele>
        <time>2011-10-02T09:34:34Z</time>
      </trkpt>
      <trkpt lat="43.56295" lon="6.91507">
        <ele>407.2556152</ele>
        <time>2011-10-02T09:34:38Z</time>
      </trkpt>
      <trkpt lat="43.56272" lon="6.91535">
        <ele>405.8137207</ele>
        <time>2011-10-02T09:34:42Z</time>
      </trkpt>
      <trkpt lat="43.56261" lon="6.91544">
        <ele>406.2943115</ele>
        <time>2011-10-02T09:34:44Z</time>
      </trkpt>
      <trkpt lat="43.56237" lon="6.9156">
        <ele>404.8522949</ele>
        <time>2011-10-02T09:34:49Z</time>
      </trkpt>
      <trkpt lat="43.56217" lon="6.91556">
        <ele>400.0458984</ele>
        <time>2011-10-02T09:34:53Z</time>
      </trkpt>
      <trkpt lat="43.5621" lon="6.91556">
        <ele>400.0458984</ele>
        <time>2011-10-02T09:34:55Z</time>
      </trkpt>
      <trkpt lat="43.56204" lon="6.91566">
        <ele>396.6811523</ele>
        <time>2011-10-02T09:34:57Z</time>
      </trkpt>
      <trkpt lat="43.56189" lon="6.91569">
        <ele>395.2391357</ele>
        <time>2011-10-02T09:35:00Z</time>
      </trkpt>
      <trkpt lat="43.56178" lon="6.91564">
        <ele>393.7972412</ele>
        <time>2011-10-02T09:35:02Z</time>
      </trkpt>
      <trkpt lat="43.56173" lon="6.91558">
        <ele>392.8359375</ele>
        <time>2011-10-02T09:35:03Z</time>
      </trkpt>
      <trkpt lat="43.56165" lon="6.91544">
        <ele>392.3553467</ele>
        <time>2011-10-02T09:35:05Z</time>
      </trkpt>
      <trkpt lat="43.56152" lon="6.91535">
        <ele>391.8745117</ele>
        <time>2011-10-02T09:35:08Z</time>
      </trkpt>
      <trkpt lat="43.56114" lon="6.91531">
        <ele>388.0292969</ele>
        <time>2011-10-02T09:35:14Z</time>
      </trkpt>
      <trkpt lat="43.56101" lon="6.91533">
        <ele>388.0292969</ele>
        <time>2011-10-02T09:35:16Z</time>
      </trkpt>
      <trkpt lat="43.56077" lon="6.91552">
        <ele>388.5100098</ele>
        <time>2011-10-02T09:35:21Z</time>
      </trkpt>
      <trkpt lat="43.56068" lon="6.91558">
        <ele>388.0292969</ele>
        <time>2011-10-02T09:35:23Z</time>
      </trkpt>
      <trkpt lat="43.56052" lon="6.91573">
        <ele>388.5100098</ele>
        <time>2011-10-02T09:35:27Z</time>
      </trkpt>
      <trkpt lat="43.56033" lon="6.9157">
        <ele>384.6647949</ele>
        <time>2011-10-02T09:35:31Z</time>
      </trkpt>
      <trkpt lat="43.56021" lon="6.91568">
        <ele>383.7032471</ele>
        <time>2011-10-02T09:35:34Z</time>
      </trkpt>
      <trkpt lat="43.56012" lon="6.91562">
        <ele>382.7420654</ele>
        <time>2011-10-02T09:35:36Z</time>
      </trkpt>
      <trkpt lat="43.55993" lon="6.91546">
        <ele>380.819458</ele>
        <time>2011-10-02T09:35:40Z</time>
      </trkpt>
      <trkpt lat="43.55981" lon="6.91543">
        <ele>381.3000488</ele>
        <time>2011-10-02T09:35:42Z</time>
      </trkpt>
      <trkpt lat="43.55959" lon="6.91528">
        <ele>378.4161377</ele>
        <time>2011-10-02T09:35:46Z</time>
      </trkpt>
      <trkpt lat="43.55954" lon="6.91523">
        <ele>377.454834</ele>
        <time>2011-10-02T09:35:47Z</time>
      </trkpt>
      <trkpt lat="43.55945" lon="6.9151">
        <ele>376.0128174</ele>
        <time>2011-10-02T09:35:49Z</time>
      </trkpt>
      <trkpt lat="43.55932" lon="6.9151">
        <ele>374.5708008</ele>
        <time>2011-10-02T09:35:52Z</time>
      </trkpt>
      <trkpt lat="43.55922" lon="6.91515">
        <ele>373.1289063</ele>
        <time>2011-10-02T09:35:54Z</time>
      </trkpt>
      <trkpt lat="43.55914" lon="6.91511">
        <ele>372.1674805</ele>
        <time>2011-10-02T09:35:57Z</time>
      </trkpt>
      <trkpt lat="43.55907" lon="6.91502">
        <ele>369.7642822</ele>
        <time>2011-10-02T09:36:00Z</time>
      </trkpt>
      <trkpt lat="43.55903" lon="6.91503">
        <ele>368.3222656</ele>
        <time>2011-10-02T09:36:01Z</time>
      </trkpt>
      <trkpt lat="43.55894" lon="6.91507">
        <ele>367.3609619</ele>
        <time>2011-10-02T09:36:03Z</time>
      </trkpt>
      <trkpt lat="43.55884" lon="6.91525">
        <ele>365.4383545</ele>
        <time>2011-10-02T09:36:07Z</time>
      </trkpt>
      <trkpt lat="43.55874" lon="6.91536">
        <ele>363.5157471</ele>
        <time>2011-10-02T09:36:10Z</time>
      </trkpt>
      <trkpt lat="43.55864" lon="6.91548">
        <ele>362.5543213</ele>
        <time>2011-10-02T09:36:13Z</time>
      </trkpt>
      <trkpt lat="43.55856" lon="6.91547">
        <ele>360.6317139</ele>
        <time>2011-10-02T09:36:15Z</time>
      </trkpt>
      <trkpt lat="43.5585" lon="6.91548">
        <ele>359.6704102</ele>
        <time>2011-10-02T09:36:17Z</time>
      </trkpt>
      <trkpt lat="43.55839" lon="6.91554">
        <ele>358.2283936</ele>
        <time>2011-10-02T09:36:20Z</time>
      </trkpt>
      <trkpt lat="43.55837" lon="6.91547">
        <ele>356.786377</ele>
        <time>2011-10-02T09:36:22Z</time>
      </trkpt>
      <trkpt lat="43.55832" lon="6.91541">
        <ele>354.3831787</ele>
        <time>2011-10-02T09:36:24Z</time>
      </trkpt>
      <trkpt lat="43.55829" lon="6.91543">
        <ele>352.9411621</ele>
        <time>2011-10-02T09:36:25Z</time>
      </trkpt>
      <trkpt lat="43.55821" lon="6.91552">
        <ele>349.0958252</ele>
        <time>2011-10-02T09:36:27Z</time>
      </trkpt>
      <trkpt lat="43.55807" lon="6.91568">
        <ele>348.6152344</ele>
        <time>2011-10-02T09:36:31Z</time>
      </trkpt>
      <trkpt lat="43.55802" lon="6.9156">
        <ele>345.2506104</ele>
        <time>2011-10-02T09:36:33Z</time>
      </trkpt>
      <trkpt lat="43.55799" lon="6.91559">
        <ele>345.2506104</ele>
        <time>2011-10-02T09:36:34Z</time>
      </trkpt>
      <trkpt lat="43.55785" lon="6.91567">
        <ele>341.8859863</ele>
        <time>2011-10-02T09:36:37Z</time>
      </trkpt>
      <trkpt lat="43.55779" lon="6.91584">
        <ele>340.4440918</ele>
        <time>2011-10-02T09:36:40Z</time>
      </trkpt>
      <trkpt lat="43.55775" lon="6.91615">
        <ele>339.0020752</ele>
        <time>2011-10-02T09:36:45Z</time>
      </trkpt>
      <trkpt lat="43.55764" lon="6.91646">
        <ele>333.2341309</ele>
        <time>2011-10-02T09:36:49Z</time>
      </trkpt>
      <trkpt lat="43.55751" lon="6.91671">
        <ele>330.3502197</ele>
        <time>2011-10-02T09:36:52Z</time>
      </trkpt>
      <trkpt lat="43.5575" lon="6.91679">
        <ele>329.8695068</ele>
        <time>2011-10-02T09:36:53Z</time>
      </trkpt>
      <trkpt lat="43.55741" lon="6.91707">
        <ele>323.1403809</ele>
        <time>2011-10-02T09:36:57Z</time>
      </trkpt>
      <trkpt lat="43.5572" lon="6.91722">
        <ele>320.2563477</ele>
        <time>2011-10-02T09:37:00Z</time>
      </trkpt>
      <trkpt lat="43.55687" lon="6.91734">
        <ele>316.4110107</ele>
        <time>2011-10-02T09:37:04Z</time>
      </trkpt>
      <trkpt lat="43.55671" lon="6.91739">
        <ele>316.4110107</ele>
        <time>2011-10-02T09:37:06Z</time>
      </trkpt>
      <trkpt lat="43.55649" lon="6.91736">
        <ele>313.0465088</ele>
        <time>2011-10-02T09:37:09Z</time>
      </trkpt>
      <trkpt lat="43.55641" lon="6.91733">
        <ele>312.5657959</ele>
        <time>2011-10-02T09:37:10Z</time>
      </trkpt>
      <trkpt lat="43.55626" lon="6.91729">
        <ele>312.0852051</ele>
        <time>2011-10-02T09:37:12Z</time>
      </trkpt>
      <trkpt lat="43.5561" lon="6.91737">
        <ele>314.0078125</ele>
        <time>2011-10-02T09:37:16Z</time>
      </trkpt>
      <trkpt lat="43.55602" lon="6.91743">
        <ele>312.5657959</ele>
        <time>2011-10-02T09:37:18Z</time>
      </trkpt>
      <trkpt lat="43.55594" lon="6.91751">
        <ele>311.6044922</ele>
        <time>2011-10-02T09:37:20Z</time>
      </trkpt>
      <trkpt lat="43.55581" lon="6.91767">
        <ele>308.2398682</ele>
        <time>2011-10-02T09:37:23Z</time>
      </trkpt>
      <trkpt lat="43.55569" lon="6.91798">
        <ele>304.3946533</ele>
        <time>2011-10-02T09:37:27Z</time>
      </trkpt>
      <trkpt lat="43.55556" lon="6.9181">
        <ele>301.991333</ele>
        <time>2011-10-02T09:37:30Z</time>
      </trkpt>
      <trkpt lat="43.55547" lon="6.91811">
        <ele>300.0687256</ele>
        <time>2011-10-02T09:37:32Z</time>
      </trkpt>
      <trkpt lat="43.55546" lon="6.9182">
        <ele>298.626709</ele>
        <time>2011-10-02T09:37:34Z</time>
      </trkpt>
      <trkpt lat="43.55545" lon="6.9183">
        <ele>297.1846924</ele>
        <time>2011-10-02T09:37:36Z</time>
      </trkpt>
      <trkpt lat="43.55529" lon="6.91852">
        <ele>291.8974609</ele>
        <time>2011-10-02T09:37:41Z</time>
      </trkpt>
      <trkpt lat="43.55518" lon="6.91847">
        <ele>289.0135498</ele>
        <time>2011-10-02T09:37:44Z</time>
      </trkpt>
      <trkpt lat="43.55516" lon="6.9185">
        <ele>289.4941406</ele>
        <time>2011-10-02T09:37:45Z</time>
      </trkpt>
      <trkpt lat="43.55512" lon="6.91866">
        <ele>288.532959</ele>
        <time>2011-10-02T09:37:50Z</time>
      </trkpt>
      <trkpt lat="43.55506" lon="6.91878">
        <ele>287.0908203</ele>
        <time>2011-10-02T09:37:54Z</time>
      </trkpt>
      <trkpt lat="43.55496" lon="6.91899">
        <ele>285.1682129</ele>
        <time>2011-10-02T09:37:58Z</time>
      </trkpt>
      <trkpt lat="43.55486" lon="6.91918">
        <ele>282.7650146</ele>
        <time>2011-10-02T09:38:01Z</time>
      </trkpt>
      <trkpt lat="43.55484" lon="6.91945">
        <ele>279.4002686</ele>
        <time>2011-10-02T09:38:05Z</time>
      </trkpt>
      <trkpt lat="43.55487" lon="6.91956">
        <ele>276.5163574</ele>
        <time>2011-10-02T09:38:07Z</time>
      </trkpt>
      <trkpt lat="43.55488" lon="6.91973">
        <ele>274.59375</ele>
        <time>2011-10-02T09:38:10Z</time>
      </trkpt>
      <trkpt lat="43.55487" lon="6.91988">
        <ele>269.3065186</ele>
        <time>2011-10-02T09:38:13Z</time>
      </trkpt>
      <trkpt lat="43.55488" lon="6.92005">
        <ele>267.864502</ele>
        <time>2011-10-02T09:38:15Z</time>
      </trkpt>
      <trkpt lat="43.55489" lon="6.92018">
        <ele>266.4224854</ele>
        <time>2011-10-02T09:38:17Z</time>
      </trkpt>
      <trkpt lat="43.55492" lon="6.92037">
        <ele>264.9805908</ele>
        <time>2011-10-02T09:38:21Z</time>
      </trkpt>
      <trkpt lat="43.5549" lon="6.92072">
        <ele>262.0965576</ele>
        <time>2011-10-02T09:38:26Z</time>
      </trkpt>
      <trkpt lat="43.55493" lon="6.92085">
        <ele>258.2513428</ele>
        <time>2011-10-02T09:38:28Z</time>
      </trkpt>
      <trkpt lat="43.55492" lon="6.92112">
        <ele>257.770752</ele>
        <time>2011-10-02T09:38:32Z</time>
      </trkpt>
      <trkpt lat="43.55497" lon="6.92126">
        <ele>254.8865967</ele>
        <time>2011-10-02T09:38:34Z</time>
      </trkpt>
      <trkpt lat="43.55499" lon="6.92138">
        <ele>253.925415</ele>
        <time>2011-10-02T09:38:36Z</time>
      </trkpt>
      <trkpt lat="43.55509" lon="6.92132">
        <ele>251.0413818</ele>
        <time>2011-10-02T09:38:39Z</time>
      </trkpt>
      <trkpt lat="43.5552" lon="6.92124">
        <ele>247.6767578</ele>
        <time>2011-10-02T09:38:41Z</time>
      </trkpt>
      <trkpt lat="43.55532" lon="6.92098">
        <ele>245.2734375</ele>
        <time>2011-10-02T09:38:44Z</time>
      </trkpt>
      <trkpt lat="43.55534" lon="6.92088">
        <ele>245.2734375</ele>
        <time>2011-10-02T09:38:45Z</time>
      </trkpt>
      <trkpt lat="43.55556" lon="6.92047">
        <ele>244.3122559</ele>
        <time>2011-10-02T09:38:50Z</time>
      </trkpt>
      <trkpt lat="43.55568" lon="6.9204">
        <ele>246.7154541</ele>
        <time>2011-10-02T09:38:52Z</time>
      </trkpt>
      <trkpt lat="43.55581" lon="6.92036">
        <ele>249.1187744</ele>
        <time>2011-10-02T09:38:55Z</time>
      </trkpt>
      <trkpt lat="43.55594" lon="6.92032">
        <ele>249.1187744</ele>
        <time>2011-10-02T09:38:58Z</time>
      </trkpt>
      <trkpt lat="43.55603" lon="6.92031">
        <ele>247.6767578</ele>
        <time>2011-10-02T09:39:00Z</time>
      </trkpt>
      <trkpt lat="43.5561" lon="6.92037">
        <ele>247.6767578</ele>
        <time>2011-10-02T09:39:03Z</time>
      </trkpt>
      <trkpt lat="43.55612" lon="6.92044">
        <ele>245.7541504</ele>
        <time>2011-10-02T09:39:05Z</time>
      </trkpt>
      <trkpt lat="43.55616" lon="6.92046">
        <ele>245.2734375</ele>
        <time>2011-10-02T09:39:06Z</time>
      </trkpt>
      <trkpt lat="43.55622" lon="6.9205">
        <ele>241.4282227</ele>
        <time>2011-10-02T09:39:09Z</time>
      </trkpt>
      <trkpt lat="43.55626" lon="6.92056">
        <ele>237.5828857</ele>
        <time>2011-10-02T09:39:11Z</time>
      </trkpt>
      <trkpt lat="43.55641" lon="6.92074">
        <ele>234.6990967</ele>
        <time>2011-10-02T09:39:15Z</time>
      </trkpt>
      <trkpt lat="43.55639" lon="6.92085">
        <ele>234.6990967</ele>
        <time>2011-10-02T09:39:17Z</time>
      </trkpt>
      <trkpt lat="43.55625" lon="6.92094">
        <ele>234.6990967</ele>
        <time>2011-10-02T09:39:21Z</time>
      </trkpt>
      <trkpt lat="43.55613" lon="6.92113">
        <ele>233.7376709</ele>
        <time>2011-10-02T09:39:25Z</time>
      </trkpt>
      <trkpt lat="43.55613" lon="6.92136">
        <ele>232.7764893</ele>
        <time>2011-10-02T09:39:28Z</time>
      </trkpt>
      <trkpt lat="43.55616" lon="6.92152">
        <ele>232.2957764</ele>
        <time>2011-10-02T09:39:30Z</time>
      </trkpt>
      <trkpt lat="43.55632" lon="6.92192">
        <ele>229.4117432</ele>
        <time>2011-10-02T09:39:35Z</time>
      </trkpt>
      <trkpt lat="43.55645" lon="6.92219">
        <ele>231.8149414</ele>
        <time>2011-10-02T09:39:39Z</time>
      </trkpt>
      <trkpt lat="43.5565" lon="6.92238">
        <ele>229.4117432</ele>
        <time>2011-10-02T09:39:42Z</time>
      </trkpt>
      <trkpt lat="43.55657" lon="6.9226">
        <ele>229.4117432</ele>
        <time>2011-10-02T09:39:45Z</time>
      </trkpt>
      <trkpt lat="43.55664" lon="6.92274">
        <ele>228.9311523</ele>
        <time>2011-10-02T09:39:47Z</time>
      </trkpt>
      <trkpt lat="43.55665" lon="6.9229">
        <ele>227.4891357</ele>
        <time>2011-10-02T09:39:50Z</time>
      </trkpt>
      <trkpt lat="43.5565" lon="6.92307">
        <ele>222.2017822</ele>
        <time>2011-10-02T09:39:53Z</time>
      </trkpt>
      <trkpt lat="43.55639" lon="6.92319">
        <ele>221.2406006</ele>
        <time>2011-10-02T09:39:55Z</time>
      </trkpt>
      <trkpt lat="43.55632" lon="6.92309">
        <ele>220.7598877</ele>
        <time>2011-10-02T09:39:58Z</time>
      </trkpt>
      <trkpt lat="43.5563" lon="6.92285">
        <ele>218.3565674</ele>
        <time>2011-10-02T09:40:01Z</time>
      </trkpt>
      <trkpt lat="43.55623" lon="6.92262">
        <ele>216.43396</ele>
        <time>2011-10-02T09:40:04Z</time>
      </trkpt>
      <trkpt lat="43.55613" lon="6.92262">
        <ele>215.9532471</ele>
        <time>2011-10-02T09:40:06Z</time>
      </trkpt>
      <trkpt lat="43.55598" lon="6.92278">
        <ele>213.5500488</ele>
        <time>2011-10-02T09:40:09Z</time>
      </trkpt>
      <trkpt lat="43.55573" lon="6.92313">
        <ele>208.2628174</ele>
        <time>2011-10-02T09:40:14Z</time>
      </trkpt>
      <trkpt lat="43.55562" lon="6.92329">
        <ele>206.3400879</ele>
        <time>2011-10-02T09:40:16Z</time>
      </trkpt>
      <trkpt lat="43.55549" lon="6.92343">
        <ele>208.2628174</ele>
        <time>2011-10-02T09:40:19Z</time>
      </trkpt>
      <trkpt lat="43.55546" lon="6.92348">
        <ele>208.2628174</ele>
        <time>2011-10-02T09:40:20Z</time>
      </trkpt>
      <trkpt lat="43.55537" lon="6.92353">
        <ele>206.3400879</ele>
        <time>2011-10-02T09:40:22Z</time>
      </trkpt>
      <trkpt lat="43.55522" lon="6.92347">
        <ele>204.8980713</ele>
        <time>2011-10-02T09:40:25Z</time>
      </trkpt>
      <trkpt lat="43.55499" lon="6.92349">
        <ele>203.4561768</ele>
        <time>2011-10-02T09:40:29Z</time>
      </trkpt>
      <trkpt lat="43.55488" lon="6.9235">
        <ele>202.494873</ele>
        <time>2011-10-02T09:40:31Z</time>
      </trkpt>
      <trkpt lat="43.5547" lon="6.92341">
        <ele>200.0916748</ele>
        <time>2011-10-02T09:40:35Z</time>
      </trkpt>
      <trkpt lat="43.55465" lon="6.92339">
        <ele>199.6108398</ele>
        <time>2011-10-02T09:40:36Z</time>
      </trkpt>
      <trkpt lat="43.55458" lon="6.92345">
        <ele>200.0916748</ele>
        <time>2011-10-02T09:40:38Z</time>
      </trkpt>
      <trkpt lat="43.55447" lon="6.92353">
        <ele>200.0916748</ele>
        <time>2011-10-02T09:40:42Z</time>
      </trkpt>
      <trkpt lat="43.55443" lon="6.92366">
        <ele>197.2075195</ele>
        <time>2011-10-02T09:40:45Z</time>
      </trkpt>
      <trkpt lat="43.55441" lon="6.92373">
        <ele>194.8043213</ele>
        <time>2011-10-02T09:40:47Z</time>
      </trkpt>
      <trkpt lat="43.5544" lon="6.92388">
        <ele>190.4783936</ele>
        <time>2011-10-02T09:40:50Z</time>
      </trkpt>
      <trkpt lat="43.55437" lon="6.92402">
        <ele>189.5169678</ele>
        <time>2011-10-02T09:40:52Z</time>
      </trkpt>
      <trkpt lat="43.55424" lon="6.92424">
        <ele>186.1524658</ele>
        <time>2011-10-02T09:40:55Z</time>
      </trkpt>
      <trkpt lat="43.55413" lon="6.92441">
        <ele>183.2684326</ele>
        <time>2011-10-02T09:40:57Z</time>
      </trkpt>
      <trkpt lat="43.55392" lon="6.92483">
        <ele>177.9812012</ele>
        <time>2011-10-02T09:41:01Z</time>
      </trkpt>
      <trkpt lat="43.55387" lon="6.92494">
        <ele>177.5006104</ele>
        <time>2011-10-02T09:41:02Z</time>
      </trkpt>
      <trkpt lat="43.55378" lon="6.92531">
        <ele>176.0585938</ele>
        <time>2011-10-02T09:41:06Z</time>
      </trkpt>
      <trkpt lat="43.55362" lon="6.92554">
        <ele>172.2132568</ele>
        <time>2011-10-02T09:41:10Z</time>
      </trkpt>
      <trkpt lat="43.55353" lon="6.92559">
        <ele>175.09729</ele>
        <time>2011-10-02T09:41:12Z</time>
      </trkpt>
      <trkpt lat="43.55341" lon="6.92575">
        <ele>174.6165771</ele>
        <time>2011-10-02T09:41:16Z</time>
      </trkpt>
      <trkpt lat="43.55329" lon="6.92585">
        <ele>173.6552734</ele>
        <time>2011-10-02T09:41:19Z</time>
      </trkpt>
      <trkpt lat="43.55321" lon="6.92587">
        <ele>173.6552734</ele>
        <time>2011-10-02T09:41:21Z</time>
      </trkpt>
      <trkpt lat="43.5532" lon="6.92596">
        <ele>170.2906494</ele>
        <time>2011-10-02T09:41:24Z</time>
      </trkpt>
      <trkpt lat="43.55324" lon="6.92598">
        <ele>170.2906494</ele>
        <time>2011-10-02T09:41:25Z</time>
      </trkpt>
      <trkpt lat="43.55329" lon="6.92603">
        <ele>168.368042</ele>
        <time>2011-10-02T09:41:28Z</time>
      </trkpt>
      <trkpt lat="43.55333" lon="6.92613">
        <ele>166.4453125</ele>
        <time>2011-10-02T09:41:31Z</time>
      </trkpt>
      <trkpt lat="43.55333" lon="6.92623">
        <ele>164.0421143</ele>
        <time>2011-10-02T09:41:34Z</time>
      </trkpt>
      <trkpt lat="43.5533" lon="6.92627">
        <ele>163.5615234</ele>
        <time>2011-10-02T09:41:35Z</time>
      </trkpt>
      <trkpt lat="43.5532" lon="6.92632">
        <ele>161.638916</ele>
        <time>2011-10-02T09:41:38Z</time>
      </trkpt>
      <trkpt lat="43.55318" lon="6.92636">
        <ele>160.6774902</ele>
        <time>2011-10-02T09:41:40Z</time>
      </trkpt>
      <trkpt lat="43.55325" lon="6.92646">
        <ele>159.2354736</ele>
        <time>2011-10-02T09:41:43Z</time>
      </trkpt>
      <trkpt lat="43.55344" lon="6.9266">
        <ele>155.8709717</ele>
        <time>2011-10-02T09:41:48Z</time>
      </trkpt>
      <trkpt lat="43.55336" lon="6.92672">
        <ele>153.9483643</ele>
        <time>2011-10-02T09:41:51Z</time>
      </trkpt>
      <trkpt lat="43.5534" lon="6.92675">
        <ele>152.9869385</ele>
        <time>2011-10-02T09:41:53Z</time>
      </trkpt>
      <trkpt lat="43.55342" lon="6.9268">
        <ele>152.0257568</ele>
        <time>2011-10-02T09:41:55Z</time>
      </trkpt>
      <trkpt lat="43.55339" lon="6.92688">
        <ele>150.5836182</ele>
        <time>2011-10-02T09:41:57Z</time>
      </trkpt>
      <trkpt lat="43.55343" lon="6.92694">
        <ele>148.6610107</ele>
        <time>2011-10-02T09:41:59Z</time>
      </trkpt>
      <trkpt lat="43.5535" lon="6.92695">
        <ele>147.699707</ele>
        <time>2011-10-02T09:42:02Z</time>
      </trkpt>
      <trkpt lat="43.55346" lon="6.92706">
        <ele>146.7384033</ele>
        <time>2011-10-02T09:42:05Z</time>
      </trkpt>
      <trkpt lat="43.55342" lon="6.92718">
        <ele>144.3352051</ele>
        <time>2011-10-02T09:42:08Z</time>
      </trkpt>
      <trkpt lat="43.55341" lon="6.92727">
        <ele>142.4124756</ele>
        <time>2011-10-02T09:42:11Z</time>
      </trkpt>
      <trkpt lat="43.55351" lon="6.92733">
        <ele>141.4510498</ele>
        <time>2011-10-02T09:42:14Z</time>
      </trkpt>
      <trkpt lat="43.55356" lon="6.92739">
        <ele>137.605835</ele>
        <time>2011-10-02T09:42:17Z</time>
      </trkpt>
      <trkpt lat="43.55361" lon="6.92745">
        <ele>136.6446533</ele>
        <time>2011-10-02T09:42:19Z</time>
      </trkpt>
      <trkpt lat="43.55368" lon="6.92754">
        <ele>132.3186035</ele>
        <time>2011-10-02T09:42:21Z</time>
      </trkpt>
      <trkpt lat="43.55374" lon="6.92776">
        <ele>127.0313721</ele>
        <time>2011-10-02T09:42:24Z</time>
      </trkpt>
      <trkpt lat="43.55377" lon="6.92784">
        <ele>127.9925537</ele>
        <time>2011-10-02T09:42:25Z</time>
      </trkpt>
      <trkpt lat="43.55387" lon="6.92828">
        <ele>123.666748</ele>
        <time>2011-10-02T09:42:30Z</time>
      </trkpt>
      <trkpt lat="43.55385" lon="6.92858">
        <ele>122.7054443</ele>
        <time>2011-10-02T09:42:33Z</time>
      </trkpt>
      <trkpt lat="43.55386" lon="6.92868">
        <ele>120.7828369</ele>
        <time>2011-10-02T09:42:34Z</time>
      </trkpt>
      <trkpt lat="43.55392" lon="6.92916">
        <ele>117.8988037</ele>
        <time>2011-10-02T09:42:38Z</time>
      </trkpt>
      <trkpt lat="43.5539" lon="6.92975">
        <ele>117.4182129</ele>
        <time>2011-10-02T09:42:43Z</time>
      </trkpt>
      <trkpt lat="43.5539" lon="6.92982">
        <ele>120.7828369</ele>
        <time>2011-10-02T09:42:44Z</time>
      </trkpt>
      <trkpt lat="43.55388" lon="6.92992">
        <ele>122.7054443</ele>
        <time>2011-10-02T09:42:47Z</time>
      </trkpt>
      <trkpt lat="43.55388" lon="6.93012">
        <ele>122.7054443</ele>
        <time>2011-10-02T09:42:52Z</time>
      </trkpt>
      <trkpt lat="43.55388" lon="6.93039">
        <ele>121.2635498</ele>
        <time>2011-10-02T09:42:57Z</time>
      </trkpt>
      <trkpt lat="43.55388" lon="6.93046">
        <ele>120.302124</ele>
        <time>2011-10-02T09:42:58Z</time>
      </trkpt>
      <trkpt lat="43.55387" lon="6.9306">
        <ele>117.8988037</ele>
        <time>2011-10-02T09:43:00Z</time>
      </trkpt>
      <trkpt lat="43.55384" lon="6.93097">
        <ele>116.4567871</ele>
        <time>2011-10-02T09:43:05Z</time>
      </trkpt>
      <trkpt lat="43.55387" lon="6.93115">
        <ele>113.572998</ele>
        <time>2011-10-02T09:43:08Z</time>
      </trkpt>
      <trkpt lat="43.55394" lon="6.93135">
        <ele>108.7662354</ele>
        <time>2011-10-02T09:43:12Z</time>
      </trkpt>
      <trkpt lat="43.554" lon="6.93142">
        <ele>107.8050537</ele>
        <time>2011-10-02T09:43:14Z</time>
      </trkpt>
      <trkpt lat="43.55416" lon="6.93156">
        <ele>102.0371094</ele>
        <time>2011-10-02T09:43:18Z</time>
      </trkpt>
      <trkpt lat="43.55421" lon="6.9316">
        <ele>102.0371094</ele>
        <time>2011-10-02T09:43:19Z</time>
      </trkpt>
      <trkpt lat="43.55433" lon="6.93173">
        <ele>100.114502</ele>
        <time>2011-10-02T09:43:22Z</time>
      </trkpt>
      <trkpt lat="43.55431" lon="6.93182">
        <ele>100.5950928</ele>
        <time>2011-10-02T09:43:24Z</time>
      </trkpt>
      <trkpt lat="43.55427" lon="6.93191">
        <ele>97.7111816</ele>
        <time>2011-10-02T09:43:27Z</time>
      </trkpt>
      <trkpt lat="43.55435" lon="6.93198">
        <ele>95.3077393</ele>
        <time>2011-10-02T09:43:29Z</time>
      </trkpt>
      <trkpt lat="43.55447" lon="6.93206">
        <ele>93.3851318</ele>
        <time>2011-10-02T09:43:32Z</time>
      </trkpt>
      <trkpt lat="43.5545" lon="6.93215">
        <ele>92.4239502</ele>
        <time>2011-10-02T09:43:35Z</time>
      </trkpt>
      <trkpt lat="43.55451" lon="6.93222">
        <ele>90.9819336</ele>
        <time>2011-10-02T09:43:37Z</time>
      </trkpt>
      <trkpt lat="43.55453" lon="6.93234">
        <ele>87.6171875</ele>
        <time>2011-10-02T09:43:40Z</time>
      </trkpt>
      <trkpt lat="43.55451" lon="6.93257">
        <ele>83.7719727</ele>
        <time>2011-10-02T09:43:44Z</time>
      </trkpt>
      <trkpt lat="43.55458" lon="6.93275">
        <ele>81.3687744</ele>
        <time>2011-10-02T09:43:49Z</time>
      </trkpt>
      <trkpt lat="43.55454" lon="6.93281">
        <ele>78.9654541</ele>
        <time>2011-10-02T09:43:52Z</time>
      </trkpt>
      <trkpt lat="43.5545" lon="6.93283">
        <ele>78.0040283</ele>
        <time>2011-10-02T09:43:54Z</time>
      </trkpt>
      <trkpt lat="43.55452" lon="6.93289">
        <ele>76.0814209</ele>
        <time>2011-10-02T09:43:57Z</time>
      </trkpt>
      <trkpt lat="43.55458" lon="6.93298">
        <ele>72.2362061</ele>
        <time>2011-10-02T09:44:01Z</time>
      </trkpt>
      <trkpt lat="43.5546" lon="6.93301">
        <ele>72.2362061</ele>
        <time>2011-10-02T09:44:02Z</time>
      </trkpt>
      <trkpt lat="43.55462" lon="6.93302">
        <ele>71.7554932</ele>
        <time>2011-10-02T09:44:03Z</time>
      </trkpt>
      <trkpt lat="43.55475" lon="6.933">
        <ele>70.7941895</ele>
        <time>2011-10-02T09:44:06Z</time>
      </trkpt>
      <trkpt lat="43.55481" lon="6.93292">
        <ele>68.871582</ele>
        <time>2011-10-02T09:44:08Z</time>
      </trkpt>
      <trkpt lat="43.5549" lon="6.9328">
        <ele>65.5070801</ele>
        <time>2011-10-02T09:44:11Z</time>
      </trkpt>
      <trkpt lat="43.555" lon="6.93283">
        <ele>63.1036377</ele>
        <time>2011-10-02T09:44:13Z</time>
      </trkpt>
      <trkpt lat="43.55507" lon="6.93288">
        <ele>61.1810303</ele>
        <time>2011-10-02T09:44:17Z</time>
      </trkpt>
      <trkpt lat="43.55507" lon="6.93282">
        <ele>60.7003174</ele>
        <time>2011-10-02T09:44:24Z</time>
      </trkpt>
      <trkpt lat="43.55504" lon="6.93263">
        <ele>59.2584229</ele>
        <time>2011-10-02T09:44:28Z</time>
      </trkpt>
      <trkpt lat="43.55498" lon="6.93248">
        <ele>59.2584229</ele>
        <time>2011-10-02T09:44:31Z</time>
      </trkpt>
      <trkpt lat="43.55495" lon="6.93224">
        <ele>58.77771</ele>
        <time>2011-10-02T09:44:35Z</time>
      </trkpt>
      <trkpt lat="43.55501" lon="6.9319">
        <ele>59.7391357</ele>
        <time>2011-10-02T09:44:41Z</time>
      </trkpt>
      <trkpt lat="43.55501" lon="6.93169">
        <ele>61.6617432</ele>
        <time>2011-10-02T09:44:46Z</time>
      </trkpt>
      <trkpt lat="43.55493" lon="6.9314">
        <ele>61.6617432</ele>
        <time>2011-10-02T09:44:52Z</time>
      </trkpt>
      <trkpt lat="43.55491" lon="6.93124">
        <ele>63.1036377</ele>
        <time>2011-10-02T09:44:56Z</time>
      </trkpt>
      <trkpt lat="43.55487" lon="6.93105">
        <ele>63.5843506</ele>
        <time>2011-10-02T09:45:01Z</time>
      </trkpt>
      <trkpt lat="43.55486" lon="6.9309">
        <ele>62.142334</ele>
        <time>2011-10-02T09:45:04Z</time>
      </trkpt>
      <trkpt lat="43.55485" lon="6.93084">
        <ele>61.6617432</ele>
        <time>2011-10-02T09:45:05Z</time>
      </trkpt>
      <trkpt lat="43.55484" lon="6.93071">
        <ele>60.7003174</ele>
        <time>2011-10-02T09:45:07Z</time>
      </trkpt>
      <trkpt lat="43.55485" lon="6.93061">
        <ele>60.7003174</ele>
        <time>2011-10-02T09:45:10Z</time>
      </trkpt>
      <trkpt lat="43.55489" lon="6.93061">
        <ele>60.7003174</ele>
        <time>2011-10-02T09:45:12Z</time>
      </trkpt>
      <trkpt lat="43.55494" lon="6.93069">
        <ele>58.2971191</ele>
        <time>2011-10-02T09:45:15Z</time>
      </trkpt>
      <trkpt lat="43.55497" lon="6.93075">
        <ele>57.8165283</ele>
        <time>2011-10-02T09:45:16Z</time>
      </trkpt>
      <trkpt lat="43.55507" lon="6.931">
        <ele>58.2971191</ele>
        <time>2011-10-02T09:45:22Z</time>
      </trkpt>
      <trkpt lat="43.55509" lon="6.93106">
        <ele>56.3745117</ele>
        <time>2011-10-02T09:45:26Z</time>
      </trkpt>
      <trkpt lat="43.55515" lon="6.93124">
        <ele>54.4517822</ele>
        <time>2011-10-02T09:45:31Z</time>
      </trkpt>
      <trkpt lat="43.55515" lon="6.93131">
        <ele>53.0097656</ele>
        <time>2011-10-02T09:45:32Z</time>
      </trkpt>
      <trkpt lat="43.55524" lon="6.93157">
        <ele>53.4904785</ele>
        <time>2011-10-02T09:45:37Z</time>
      </trkpt>
      <trkpt lat="43.5553" lon="6.93161">
        <ele>53.9711914</ele>
        <time>2011-10-02T09:45:39Z</time>
      </trkpt>
      <trkpt lat="43.55537" lon="6.93165">
        <ele>54.4517822</ele>
        <time>2011-10-02T09:45:44Z</time>
      </trkpt>
      <trkpt lat="43.55536" lon="6.93168">
        <ele>54.4517822</ele>
        <time>2011-10-02T09:45:49Z</time>
      </trkpt>
      <trkpt lat="43.55535" lon="6.93175">
        <ele>54.932373</ele>
        <time>2011-10-02T09:45:55Z</time>
      </trkpt>
      <trkpt lat="43.55534" lon="6.93187">
        <ele>55.4130859</ele>
        <time>2011-10-02T09:46:03Z</time>
      </trkpt>
      <trkpt lat="43.55534" lon="6.93198">
        <ele>57.3358154</ele>
        <time>2011-10-02T09:46:10Z</time>
      </trkpt>
      <trkpt lat="43.55534" lon="6.93207">
        <ele>57.8165283</ele>
        <time>2011-10-02T09:46:17Z</time>
      </trkpt>
      <trkpt lat="43.55537" lon="6.93223">
        <ele>56.3745117</ele>
        <time>2011-10-02T09:46:21Z</time>
      </trkpt>
      <trkpt lat="43.55549" lon="6.93253">
        <ele>55.8937988</ele>
        <time>2011-10-02T09:46:28Z</time>
      </trkpt>
      <trkpt lat="43.55554" lon="6.93263">
        <ele>55.4130859</ele>
        <time>2011-10-02T09:46:31Z</time>
      </trkpt>
      <trkpt lat="43.55554" lon="6.93263">
        <ele>55.8937988</ele>
        <time>2011-10-02T09:46:36Z</time>
      </trkpt>
      <trkpt lat="43.55555" lon="6.93264">
        <ele>55.4130859</ele>
        <time>2011-10-02T09:46:46Z</time>
      </trkpt>
      <trkpt lat="43.5556" lon="6.93271">
        <ele>53.0097656</ele>
        <time>2011-10-02T09:46:50Z</time>
      </trkpt>
      <trkpt lat="43.55566" lon="6.93278">
        <ele>52.5291748</ele>
        <time>2011-10-02T09:46:52Z</time>
      </trkpt>
      <trkpt lat="43.55569" lon="6.93287">
        <ele>52.5291748</ele>
        <time>2011-10-02T09:46:54Z</time>
      </trkpt>
      <trkpt lat="43.55579" lon="6.93307">
        <ele>51.0871582</ele>
        <time>2011-10-02T09:46:58Z</time>
      </trkpt>
      <trkpt lat="43.55584" lon="6.93328">
        <ele>50.6065674</ele>
        <time>2011-10-02T09:47:02Z</time>
      </trkpt>
      <trkpt lat="43.55582" lon="6.93343">
        <ele>50.1259766</ele>
        <time>2011-10-02T09:47:05Z</time>
      </trkpt>
      <trkpt lat="43.55575" lon="6.9336">
        <ele>48.2033691</ele>
        <time>2011-10-02T09:47:08Z</time>
      </trkpt>
      <trkpt lat="43.55567" lon="6.93372">
        <ele>46.7612305</ele>
        <time>2011-10-02T09:47:10Z</time>
      </trkpt>
      <trkpt lat="43.55562" lon="6.93392">
        <ele>46.2806396</ele>
        <time>2011-10-02T09:47:13Z</time>
      </trkpt>
      <trkpt lat="43.55563" lon="6.93413">
        <ele>47.7225342</ele>
        <time>2011-10-02T09:47:18Z</time>
      </trkpt>
      <trkpt lat="43.55555" lon="6.93435">
        <ele>43.3966064</ele>
        <time>2011-10-02T09:47:22Z</time>
      </trkpt>
      <trkpt lat="43.55561" lon="6.93451">
        <ele>43.3966064</ele>
        <time>2011-10-02T09:47:25Z</time>
      </trkpt>
      <trkpt lat="43.55565" lon="6.93461">
        <ele>43.8773193</ele>
        <time>2011-10-02T09:47:27Z</time>
      </trkpt>
      <trkpt lat="43.55576" lon="6.93494">
        <ele>44.838623</ele>
        <time>2011-10-02T09:47:34Z</time>
      </trkpt>
      <trkpt lat="43.55586" lon="6.93508">
        <ele>44.838623</ele>
        <time>2011-10-02T09:47:38Z</time>
      </trkpt>
      <trkpt lat="43.55602" lon="6.93507">
        <ele>45.3192139</ele>
        <time>2011-10-02T09:47:43Z</time>
      </trkpt>
      <trkpt lat="43.55609" lon="6.93507">
        <ele>44.838623</ele>
        <time>2011-10-02T09:47:45Z</time>
      </trkpt>
      <trkpt lat="43.55618" lon="6.93524">
        <ele>42.4354248</ele>
        <time>2011-10-02T09:47:49Z</time>
      </trkpt>
      <trkpt lat="43.55612" lon="6.93535">
        <ele>40.0321045</ele>
        <time>2011-10-02T09:47:51Z</time>
      </trkpt>
      <trkpt lat="43.55586" lon="6.93579">
        <ele>35.2254639</ele>
        <time>2011-10-02T09:47:57Z</time>
      </trkpt>
      <trkpt lat="43.55576" lon="6.93607">
        <ele>33.7834473</ele>
        <time>2011-10-02T09:48:00Z</time>
      </trkpt>
      <trkpt lat="43.55569" lon="6.93646">
        <ele>30.8995361</ele>
        <time>2011-10-02T09:48:04Z</time>
      </trkpt>
      <trkpt lat="43.55564" lon="6.93664">
        <ele>29.9381104</ele>
        <time>2011-10-02T09:48:06Z</time>
      </trkpt>
      <trkpt lat="43.55546" lon="6.93685">
        <ele>28.9769287</ele>
        <time>2011-10-02T09:48:09Z</time>
      </trkpt>
      <trkpt lat="43.55519" lon="6.93711">
        <ele>26.0928955</ele>
        <time>2011-10-02T09:48:13Z</time>
      </trkpt>
      <trkpt lat="43.55514" lon="6.93721">
        <ele>26.0928955</ele>
        <time>2011-10-02T09:48:14Z</time>
      </trkpt>
      <trkpt lat="43.55509" lon="6.93732">
        <ele>25.1317139</ele>
        <time>2011-10-02T09:48:15Z</time>
      </trkpt>
      <trkpt lat="43.55497" lon="6.93764">
        <ele>24.651001</ele>
        <time>2011-10-02T09:48:18Z</time>
      </trkpt>
      <trkpt lat="43.55494" lon="6.93791">
        <ele>24.651001</ele>
        <time>2011-10-02T09:48:21Z</time>
      </trkpt>
      <trkpt lat="43.55504" lon="6.93802">
        <ele>23.6895752</ele>
        <time>2011-10-02T09:48:23Z</time>
      </trkpt>
      <trkpt lat="43.5551" lon="6.93805">
        <ele>23.2089844</ele>
        <time>2011-10-02T09:48:24Z</time>
      </trkpt>
      <trkpt lat="43.55532" lon="6.93812">
        <ele>20.8056641</ele>
        <time>2011-10-02T09:48:27Z</time>
      </trkpt>
      <trkpt lat="43.55553" lon="6.93837">
        <ele>18.8830566</ele>
        <time>2011-10-02T09:48:31Z</time>
      </trkpt>
      <trkpt lat="43.55555" lon="6.93848">
        <ele>18.4023438</ele>
        <time>2011-10-02T09:48:32Z</time>
      </trkpt>
      <trkpt lat="43.55546" lon="6.93874">
        <ele>16.9604492</ele>
        <time>2011-10-02T09:48:35Z</time>
      </trkpt>
      <trkpt lat="43.55526" lon="6.93884">
        <ele>16.9604492</ele>
        <time>2011-10-02T09:48:38Z</time>
      </trkpt>
      <trkpt lat="43.55519" lon="6.93884">
        <ele>16.9604492</ele>
        <time>2011-10-02T09:48:39Z</time>
      </trkpt>
      <trkpt lat="43.55486" lon="6.9388">
        <ele>17.9217529</ele>
        <time>2011-10-02T09:48:45Z</time>
      </trkpt>
      <trkpt lat="43.55483" lon="6.93887">
        <ele>17.9217529</ele>
        <time>2011-10-02T09:48:49Z</time>
      </trkpt>
      <trkpt lat="43.55491" lon="6.93894">
        <ele>17.9217529</ele>
        <time>2011-10-02T09:48:53Z</time>
      </trkpt>
      <trkpt lat="43.55496" lon="6.93897">
        <ele>17.9217529</ele>
        <time>2011-10-02T09:48:55Z</time>
      </trkpt>
      <trkpt lat="43.55498" lon="6.93899">
        <ele>18.4023438</ele>
        <time>2011-10-02T09:49:00Z</time>
      </trkpt>
      <trkpt lat="43.55499" lon="6.93875">
        <ele>18.4023438</ele>
        <time>2011-10-02T09:51:06Z</time>
      </trkpt>
      <trkpt lat="43.555" lon="6.93876">
        <ele>18.8830566</ele>
        <time>2011-10-02T09:51:14Z</time>
      </trkpt>
      <trkpt lat="43.55508" lon="6.93885">
        <ele>18.4023438</ele>
        <time>2011-10-02T09:51:18Z</time>
      </trkpt>
      <trkpt lat="43.55528" lon="6.93898">
        <ele>16.9604492</ele>
        <time>2011-10-02T09:51:24Z</time>
      </trkpt>
      <trkpt lat="43.55532" lon="6.939">
        <ele>16.9604492</ele>
        <time>2011-10-02T09:51:25Z</time>
      </trkpt>
      <trkpt lat="43.55548" lon="6.93921">
        <ele>16.4797363</ele>
        <time>2011-10-02T09:51:30Z</time>
      </trkpt>
      <trkpt lat="43.55554" lon="6.93939">
        <ele>15.0377197</ele>
        <time>2011-10-02T09:51:33Z</time>
      </trkpt>
      <trkpt lat="43.55558" lon="6.93996">
        <ele>15.0377197</ele>
        <time>2011-10-02T09:51:42Z</time>
      </trkpt>
      <trkpt lat="43.55556" lon="6.94041">
        <ele>15.0377197</ele>
        <time>2011-10-02T09:51:50Z</time>
      </trkpt>
      <trkpt lat="43.55549" lon="6.94079">
        <ele>15.0377197</ele>
        <time>2011-10-02T09:51:57Z</time>
      </trkpt>
      <trkpt lat="43.55551" lon="6.94117">
        <ele>15.5184326</ele>
        <time>2011-10-02T09:52:04Z</time>
      </trkpt>
      <trkpt lat="43.55553" lon="6.94125">
        <ele>15.0377197</ele>
        <time>2011-10-02T09:52:06Z</time>
      </trkpt>
      <trkpt lat="43.55568" lon="6.94125">
        <ele>15.0377197</ele>
        <time>2011-10-02T09:52:10Z</time>
      </trkpt>
      <trkpt lat="43.55572" lon="6.94122">
        <ele>14.5570068</ele>
        <time>2011-10-02T09:52:11Z</time>
      </trkpt>
      <trkpt lat="43.55607" lon="6.94089">
        <ele>14.5570068</ele>
        <time>2011-10-02T09:52:19Z</time>
      </trkpt>
      <trkpt lat="43.55639" lon="6.9407">
        <ele>14.5570068</ele>
        <time>2011-10-02T09:52:25Z</time>
      </trkpt>
      <trkpt lat="43.55644" lon="6.94068">
        <ele>14.5570068</ele>
        <time>2011-10-02T09:52:26Z</time>
      </trkpt>
      <trkpt lat="43.55678" lon="6.94071">
        <ele>13.5958252</ele>
        <time>2011-10-02T09:52:32Z</time>
      </trkpt>
      <trkpt lat="43.55737" lon="6.94089">
        <ele>14.076416</ele>
        <time>2011-10-02T09:52:43Z</time>
      </trkpt>
      <trkpt lat="43.5578" lon="6.94101">
        <ele>15.0377197</ele>
        <time>2011-10-02T09:52:52Z</time>
      </trkpt>
      <trkpt lat="43.55815" lon="6.94112">
        <ele>15.5184326</ele>
        <time>2011-10-02T09:53:00Z</time>
      </trkpt>
      <trkpt lat="43.55856" lon="6.94125">
        <ele>15.9990234</ele>
        <time>2011-10-02T09:53:09Z</time>
      </trkpt>
      <trkpt lat="43.55894" lon="6.94138">
        <ele>15.5184326</ele>
        <time>2011-10-02T09:53:17Z</time>
      </trkpt>
      <trkpt lat="43.55942" lon="6.94155">
        <ele>15.9990234</ele>
        <time>2011-10-02T09:53:27Z</time>
      </trkpt>
      <trkpt lat="43.55984" lon="6.94171">
        <ele>15.9990234</ele>
        <time>2011-10-02T09:53:36Z</time>
      </trkpt>
      <trkpt lat="43.56029" lon="6.94188">
        <ele>16.4797363</ele>
        <time>2011-10-02T09:53:46Z</time>
      </trkpt>
      <trkpt lat="43.56063" lon="6.94202">
        <ele>16.9604492</ele>
        <time>2011-10-02T09:53:54Z</time>
      </trkpt>
      <trkpt lat="43.56094" lon="6.94215">
        <ele>16.9604492</ele>
        <time>2011-10-02T09:54:01Z</time>
      </trkpt>
      <trkpt lat="43.56114" lon="6.94209">
        <ele>17.4411621</ele>
        <time>2011-10-02T09:54:06Z</time>
      </trkpt>
      <trkpt lat="43.56125" lon="6.94191">
        <ele>17.4411621</ele>
        <time>2011-10-02T09:54:10Z</time>
      </trkpt>
      <trkpt lat="43.56128" lon="6.94179">
        <ele>17.4411621</ele>
        <time>2011-10-02T09:54:12Z</time>
      </trkpt>
      <trkpt lat="43.56137" lon="6.94117">
        <ele>17.4411621</ele>
        <time>2011-10-02T09:54:22Z</time>
      </trkpt>
      <trkpt lat="43.56147" lon="6.94059">
        <ele>17.4411621</ele>
        <time>2011-10-02T09:54:32Z</time>
      </trkpt>
      <trkpt lat="43.56161" lon="6.94008">
        <ele>18.8830566</ele>
        <time>2011-10-02T09:54:41Z</time>
      </trkpt>
      <trkpt lat="43.56175" lon="6.93958">
        <ele>18.8830566</ele>
        <time>2011-10-02T09:54:50Z</time>
      </trkpt>
      <trkpt lat="43.56193" lon="6.93937">
        <ele>19.3637695</ele>
        <time>2011-10-02T09:54:56Z</time>
      </trkpt>
      <trkpt lat="43.56205" lon="6.93936">
        <ele>19.8443604</ele>
        <time>2011-10-02T09:54:59Z</time>
      </trkpt>
      <trkpt lat="43.56256" lon="6.93949">
        <ele>22.2475586</ele>
        <time>2011-10-02T09:55:12Z</time>
      </trkpt>
      <trkpt lat="43.56291" lon="6.93959">
        <ele>21.7669678</ele>
        <time>2011-10-02T09:55:20Z</time>
      </trkpt>
      <trkpt lat="43.56337" lon="6.93971">
        <ele>20.8056641</ele>
        <time>2011-10-02T09:55:30Z</time>
      </trkpt>
      <trkpt lat="43.56377" lon="6.93982">
        <ele>20.8056641</ele>
        <time>2011-10-02T09:55:38Z</time>
      </trkpt>
      <trkpt lat="43.56427" lon="6.93988">
        <ele>20.8056641</ele>
        <time>2011-10-02T09:55:47Z</time>
      </trkpt>
      <trkpt lat="43.56485" lon="6.93985">
        <ele>20.8056641</ele>
        <time>2011-10-02T09:55:58Z</time>
      </trkpt>
      <trkpt lat="43.56535" lon="6.93975">
        <ele>22.2475586</ele>
        <time>2011-10-02T09:56:08Z</time>
      </trkpt>
      <trkpt lat="43.56559" lon="6.93986">
        <ele>23.2089844</ele>
        <time>2011-10-02T09:56:13Z</time>
      </trkpt>
      <trkpt lat="43.56581" lon="6.94001">
        <ele>22.7282715</ele>
        <time>2011-10-02T09:56:18Z</time>
      </trkpt>
      <trkpt lat="43.56589" lon="6.93992">
        <ele>22.2475586</ele>
        <time>2011-10-02T09:56:20Z</time>
      </trkpt>
      <trkpt lat="43.56616" lon="6.93971">
        <ele>19.8443604</ele>
        <time>2011-10-02T09:56:25Z</time>
      </trkpt>
      <trkpt lat="43.56623" lon="6.9397">
        <ele>19.3637695</ele>
        <time>2011-10-02T09:56:26Z</time>
      </trkpt>
      <trkpt lat="43.5667" lon="6.93965">
        <ele>17.9217529</ele>
        <time>2011-10-02T09:56:33Z</time>
      </trkpt>
      <trkpt lat="43.56742" lon="6.93958">
        <ele>17.4411621</ele>
        <time>2011-10-02T09:56:44Z</time>
      </trkpt>
      <trkpt lat="43.56759" lon="6.93957">
        <ele>17.9217529</ele>
        <time>2011-10-02T09:56:47Z</time>
      </trkpt>
      <trkpt lat="43.56801" lon="6.93966">
        <ele>16.9604492</ele>
        <time>2011-10-02T09:56:54Z</time>
      </trkpt>
      <trkpt lat="43.56852" lon="6.93983">
        <ele>15.9990234</ele>
        <time>2011-10-02T09:57:03Z</time>
      </trkpt>
      <trkpt lat="43.56897" lon="6.93996">
        <ele>15.9990234</ele>
        <time>2011-10-02T09:57:11Z</time>
      </trkpt>
      <trkpt lat="43.56952" lon="6.94006">
        <ele>16.4797363</ele>
        <time>2011-10-02T09:57:20Z</time>
      </trkpt>
      <trkpt lat="43.57007" lon="6.94006">
        <ele>15.5184326</ele>
        <time>2011-10-02T09:57:29Z</time>
      </trkpt>
      <trkpt lat="43.57048" lon="6.94005">
        <ele>15.5184326</ele>
        <time>2011-10-02T09:57:36Z</time>
      </trkpt>
      <trkpt lat="43.57075" lon="6.93991">
        <ele>15.9990234</ele>
        <time>2011-10-02T09:57:41Z</time>
      </trkpt>
      <trkpt lat="43.57102" lon="6.93971">
        <ele>15.5184326</ele>
        <time>2011-10-02T09:57:46Z</time>
      </trkpt>
      <trkpt lat="43.57131" lon="6.93936">
        <ele>16.9604492</ele>
        <time>2011-10-02T09:57:53Z</time>
      </trkpt>
      <trkpt lat="43.57151" lon="6.93892">
        <ele>16.4797363</ele>
        <time>2011-10-02T09:58:00Z</time>
      </trkpt>
      <trkpt lat="43.57184" lon="6.9381">
        <ele>17.4411621</ele>
        <time>2011-10-02T09:58:13Z</time>
      </trkpt>
      <trkpt lat="43.57209" lon="6.93758">
        <ele>17.4411621</ele>
        <time>2011-10-02T09:58:22Z</time>
      </trkpt>
      <trkpt lat="43.57238" lon="6.93719">
        <ele>17.4411621</ele>
        <time>2011-10-02T09:58:30Z</time>
      </trkpt>
      <trkpt lat="43.57277" lon="6.93685">
        <ele>17.4411621</ele>
        <time>2011-10-02T09:58:39Z</time>
      </trkpt>
      <trkpt lat="43.57326" lon="6.93647">
        <ele>18.4023438</ele>
        <time>2011-10-02T09:58:50Z</time>
      </trkpt>
      <trkpt lat="43.57334" lon="6.93639">
        <ele>18.4023438</ele>
        <time>2011-10-02T09:58:52Z</time>
      </trkpt>
      <trkpt lat="43.57347" lon="6.9361">
        <ele>18.8830566</ele>
        <time>2011-10-02T09:58:57Z</time>
      </trkpt>
      <trkpt lat="43.5735" lon="6.93595">
        <ele>18.4023438</ele>
        <time>2011-10-02T09:58:59Z</time>
      </trkpt>
      <trkpt lat="43.57356" lon="6.93531">
        <ele>16.9604492</ele>
        <time>2011-10-02T09:59:07Z</time>
      </trkpt>
      <trkpt lat="43.57357" lon="6.93523">
        <ele>16.9604492</ele>
        <time>2011-10-02T09:59:08Z</time>
      </trkpt>
      <trkpt lat="43.57372" lon="6.93493">
        <ele>17.4411621</ele>
        <time>2011-10-02T09:59:13Z</time>
      </trkpt>
      <trkpt lat="43.57386" lon="6.93481">
        <ele>17.4411621</ele>
        <time>2011-10-02T09:59:16Z</time>
      </trkpt>
      <trkpt lat="43.57432" lon="6.93456">
        <ele>17.4411621</ele>
        <time>2011-10-02T09:59:25Z</time>
      </trkpt>
      <trkpt lat="43.57473" lon="6.93429">
        <ele>17.9217529</ele>
        <time>2011-10-02T09:59:34Z</time>
      </trkpt>
      <trkpt lat="43.57508" lon="6.93402">
        <ele>18.4023438</ele>
        <time>2011-10-02T09:59:42Z</time>
      </trkpt>
      <trkpt lat="43.57541" lon="6.93365">
        <ele>18.4023438</ele>
        <time>2011-10-02T09:59:50Z</time>
      </trkpt>
      <trkpt lat="43.57562" lon="6.93323">
        <ele>18.4023438</ele>
        <time>2011-10-02T09:59:57Z</time>
      </trkpt>
      <trkpt lat="43.57573" lon="6.93294">
        <ele>17.4411621</ele>
        <time>2011-10-02T10:00:01Z</time>
      </trkpt>
      <trkpt lat="43.57597" lon="6.93237">
        <ele>17.4411621</ele>
        <time>2011-10-02T10:00:09Z</time>
      </trkpt>
      <trkpt lat="43.57625" lon="6.93186">
        <ele>17.4411621</ele>
        <time>2011-10-02T10:00:17Z</time>
      </trkpt>
      <trkpt lat="43.57629" lon="6.93181">
        <ele>17.4411621</ele>
        <time>2011-10-02T10:00:18Z</time>
      </trkpt>
      <trkpt lat="43.57669" lon="6.93153">
        <ele>17.4411621</ele>
        <time>2011-10-02T10:00:26Z</time>
      </trkpt>
      <trkpt lat="43.57721" lon="6.93119">
        <ele>17.4411621</ele>
        <time>2011-10-02T10:00:36Z</time>
      </trkpt>
      <trkpt lat="43.57759" lon="6.93085">
        <ele>17.9217529</ele>
        <time>2011-10-02T10:00:44Z</time>
      </trkpt>
      <trkpt lat="43.57795" lon="6.93064">
        <ele>16.9604492</ele>
        <time>2011-10-02T10:00:51Z</time>
      </trkpt>
      <trkpt lat="43.57844" lon="6.93054">
        <ele>17.9217529</ele>
        <time>2011-10-02T10:01:00Z</time>
      </trkpt>
      <trkpt lat="43.57877" lon="6.93046">
        <ele>17.4411621</ele>
        <time>2011-10-02T10:01:06Z</time>
      </trkpt>
      <trkpt lat="43.57904" lon="6.93047">
        <ele>18.4023438</ele>
        <time>2011-10-02T10:01:11Z</time>
      </trkpt>
      <trkpt lat="43.57922" lon="6.9305">
        <ele>19.3637695</ele>
        <time>2011-10-02T10:01:15Z</time>
      </trkpt>
      <trkpt lat="43.57945" lon="6.93042">
        <ele>19.8443604</ele>
        <time>2011-10-02T10:01:21Z</time>
      </trkpt>
      <trkpt lat="43.57969" lon="6.93019">
        <ele>20.3249512</ele>
        <time>2011-10-02T10:01:28Z</time>
      </trkpt>
      <trkpt lat="43.57995" lon="6.92984">
        <ele>20.3249512</ele>
        <time>2011-10-02T10:01:36Z</time>
      </trkpt>
      <trkpt lat="43.58025" lon="6.92957">
        <ele>20.8056641</ele>
        <time>2011-10-02T10:01:44Z</time>
      </trkpt>
      <trkpt lat="43.58051" lon="6.92925">
        <ele>20.8056641</ele>
        <time>2011-10-02T10:01:52Z</time>
      </trkpt>
      <trkpt lat="43.58082" lon="6.92882">
        <ele>20.8056641</ele>
        <time>2011-10-02T10:02:01Z</time>
      </trkpt>
      <trkpt lat="43.5812" lon="6.9283">
        <ele>21.286377</ele>
        <time>2011-10-02T10:02:12Z</time>
      </trkpt>
      <trkpt lat="43.58144" lon="6.92794">
        <ele>21.7669678</ele>
        <time>2011-10-02T10:02:20Z</time>
      </trkpt>
      <trkpt lat="43.58154" lon="6.92783">
        <ele>21.7669678</ele>
        <time>2011-10-02T10:02:23Z</time>
      </trkpt>
      <trkpt lat="43.58179" lon="6.92774">
        <ele>21.7669678</ele>
        <time>2011-10-02T10:02:29Z</time>
      </trkpt>
      <trkpt lat="43.58213" lon="6.92766">
        <ele>22.7282715</ele>
        <time>2011-10-02T10:02:38Z</time>
      </trkpt>
      <trkpt lat="43.5822" lon="6.9276">
        <ele>22.2475586</ele>
        <time>2011-10-02T10:02:40Z</time>
      </trkpt>
      <trkpt lat="43.58227" lon="6.92752">
        <ele>24.1702881</ele>
        <time>2011-10-02T10:02:42Z</time>
      </trkpt>
      <trkpt lat="43.58236" lon="6.92736">
        <ele>21.7669678</ele>
        <time>2011-10-02T10:02:45Z</time>
      </trkpt>
      <trkpt lat="43.58263" lon="6.92689">
        <ele>21.7669678</ele>
        <time>2011-10-02T10:02:54Z</time>
      </trkpt>
      <trkpt lat="43.58291" lon="6.92647">
        <ele>22.7282715</ele>
        <time>2011-10-02T10:03:03Z</time>
      </trkpt>
      <trkpt lat="43.58312" lon="6.92618">
        <ele>25.6123047</ele>
        <time>2011-10-02T10:03:11Z</time>
      </trkpt>
      <trkpt lat="43.58338" lon="6.92586">
        <ele>26.5736084</ele>
        <time>2011-10-02T10:03:20Z</time>
      </trkpt>
      <trkpt lat="43.58371" lon="6.92543">
        <ele>27.5349121</ele>
        <time>2011-10-02T10:03:31Z</time>
      </trkpt>
      <trkpt lat="43.58383" lon="6.92526">
        <ele>27.5349121</ele>
        <time>2011-10-02T10:03:35Z</time>
      </trkpt>
      <trkpt lat="43.58394" lon="6.92495">
        <ele>25.6123047</ele>
        <time>2011-10-02T10:03:40Z</time>
      </trkpt>
      <trkpt lat="43.58395" lon="6.92472">
        <ele>25.1317139</ele>
        <time>2011-10-02T10:03:43Z</time>
      </trkpt>
      <trkpt lat="43.58388" lon="6.9241">
        <ele>22.7282715</ele>
        <time>2011-10-02T10:03:50Z</time>
      </trkpt>
      <trkpt lat="43.58393" lon="6.92365">
        <ele>21.7669678</ele>
        <time>2011-10-02T10:03:55Z</time>
      </trkpt>
      <trkpt lat="43.58397" lon="6.92351">
        <ele>22.2475586</ele>
        <time>2011-10-02T10:03:57Z</time>
      </trkpt>
      <trkpt lat="43.58417" lon="6.92319">
        <ele>21.286377</ele>
        <time>2011-10-02T10:04:03Z</time>
      </trkpt>
      <trkpt lat="43.58438" lon="6.92312">
        <ele>20.8056641</ele>
        <time>2011-10-02T10:04:07Z</time>
      </trkpt>
      <trkpt lat="43.58458" lon="6.92323">
        <ele>20.8056641</ele>
        <time>2011-10-02T10:04:11Z</time>
      </trkpt>
      <trkpt lat="43.58463" lon="6.92327">
        <ele>20.8056641</ele>
        <time>2011-10-02T10:04:12Z</time>
      </trkpt>
      <trkpt lat="43.58509" lon="6.92375">
        <ele>20.8056641</ele>
        <time>2011-10-02T10:04:23Z</time>
      </trkpt>
      <trkpt lat="43.58548" lon="6.92414">
        <ele>20.8056641</ele>
        <time>2011-10-02T10:04:32Z</time>
      </trkpt>
      <trkpt lat="43.58591" lon="6.92456">
        <ele>18.4023438</ele>
        <time>2011-10-02T10:04:42Z</time>
      </trkpt>
      <trkpt lat="43.58634" lon="6.925">
        <ele>17.4411621</ele>
        <time>2011-10-02T10:04:52Z</time>
      </trkpt>
      <trkpt lat="43.58639" lon="6.92504">
        <ele>18.4023438</ele>
        <time>2011-10-02T10:04:53Z</time>
      </trkpt>
      <trkpt lat="43.58663" lon="6.92525">
        <ele>18.4023438</ele>
        <time>2011-10-02T10:04:58Z</time>
      </trkpt>
      <trkpt lat="43.5871" lon="6.92568">
        <ele>18.8830566</ele>
        <time>2011-10-02T10:05:08Z</time>
      </trkpt>
      <trkpt lat="43.58738" lon="6.92593">
        <ele>18.4023438</ele>
        <time>2011-10-02T10:05:14Z</time>
      </trkpt>
      <trkpt lat="43.58768" lon="6.92622">
        <ele>17.9217529</ele>
        <time>2011-10-02T10:05:21Z</time>
      </trkpt>
      <trkpt lat="43.58806" lon="6.92659">
        <ele>19.3637695</ele>
        <time>2011-10-02T10:05:30Z</time>
      </trkpt>
      <trkpt lat="43.58836" lon="6.92687">
        <ele>20.8056641</ele>
        <time>2011-10-02T10:05:38Z</time>
      </trkpt>
      <trkpt lat="43.58866" lon="6.92716">
        <ele>20.8056641</ele>
        <time>2011-10-02T10:05:47Z</time>
      </trkpt>
      <trkpt lat="43.58896" lon="6.92749">
        <ele>22.7282715</ele>
        <time>2011-10-02T10:05:58Z</time>
      </trkpt>
      <trkpt lat="43.58916" lon="6.92773">
        <ele>23.6895752</ele>
        <time>2011-10-02T10:06:05Z</time>
      </trkpt>
      <trkpt lat="43.58944" lon="6.9281">
        <ele>23.2089844</ele>
        <time>2011-10-02T10:06:14Z</time>
      </trkpt>
      <trkpt lat="43.58971" lon="6.92844">
        <ele>22.2475586</ele>
        <time>2011-10-02T10:06:21Z</time>
      </trkpt>
      <trkpt lat="43.5898" lon="6.92855">
        <ele>21.286377</ele>
        <time>2011-10-02T10:06:23Z</time>
      </trkpt>
      <trkpt lat="43.59008" lon="6.92875">
        <ele>20.8056641</ele>
        <time>2011-10-02T10:06:28Z</time>
      </trkpt>
      <trkpt lat="43.59059" lon="6.92896">
        <ele>20.3249512</ele>
        <time>2011-10-02T10:06:37Z</time>
      </trkpt>
      <trkpt lat="43.59084" lon="6.92909">
        <ele>20.8056641</ele>
        <time>2011-10-02T10:06:43Z</time>
      </trkpt>
      <trkpt lat="43.591" lon="6.9293">
        <ele>21.286377</ele>
        <time>2011-10-02T10:06:48Z</time>
      </trkpt>
      <trkpt lat="43.59113" lon="6.92945">
        <ele>19.8443604</ele>
        <time>2011-10-02T10:06:52Z</time>
      </trkpt>
      <trkpt lat="43.59135" lon="6.92967">
        <ele>19.8443604</ele>
        <time>2011-10-02T10:06:58Z</time>
      </trkpt>
      <trkpt lat="43.59161" lon="6.92984">
        <ele>19.8443604</ele>
        <time>2011-10-02T10:07:05Z</time>
      </trkpt>
      <trkpt lat="43.59179" lon="6.93003">
        <ele>18.8830566</ele>
        <time>2011-10-02T10:07:11Z</time>
      </trkpt>
      <trkpt lat="43.59182" lon="6.93006">
        <ele>18.8830566</ele>
        <time>2011-10-02T10:07:12Z</time>
      </trkpt>
      <trkpt lat="43.59192" lon="6.93035">
        <ele>19.8443604</ele>
        <time>2011-10-02T10:07:18Z</time>
      </trkpt>
      <trkpt lat="43.59205" lon="6.93048">
        <ele>19.8443604</ele>
        <time>2011-10-02T10:07:22Z</time>
      </trkpt>
      <trkpt lat="43.59208" lon="6.93064">
        <ele>19.3637695</ele>
        <time>2011-10-02T10:07:25Z</time>
      </trkpt>
      <trkpt lat="43.59195" lon="6.9308">
        <ele>19.3637695</ele>
        <time>2011-10-02T10:07:29Z</time>
      </trkpt>
      <trkpt lat="43.59192" lon="6.93084">
        <ele>18.8830566</ele>
        <time>2011-10-02T10:07:30Z</time>
      </trkpt>
      <trkpt lat="43.59177" lon="6.93113">
        <ele>20.8056641</ele>
        <time>2011-10-02T10:07:37Z</time>
      </trkpt>
      <trkpt lat="43.59163" lon="6.93117">
        <ele>20.3249512</ele>
        <time>2011-10-02T10:07:41Z</time>
      </trkpt>
      <trkpt lat="43.59158" lon="6.93117">
        <ele>20.8056641</ele>
        <time>2011-10-02T10:07:44Z</time>
      </trkpt>
      <trkpt lat="43.59158" lon="6.93113">
        <ele>20.3249512</ele>
        <time>2011-10-02T10:07:50Z</time>
      </trkpt>
      <trkpt lat="43.59139" lon="6.93116">
        <ele>19.3637695</ele>
        <time>2011-10-02T10:07:55Z</time>
      </trkpt>
      <trkpt lat="43.59135" lon="6.93117">
        <ele>19.3637695</ele>
        <time>2011-10-02T10:07:56Z</time>
      </trkpt>
      <trkpt lat="43.59103" lon="6.93121">
        <ele>18.8830566</ele>
        <time>2011-10-02T10:08:05Z</time>
      </trkpt>
      <trkpt lat="43.59087" lon="6.93119">
        <ele>19.3637695</ele>
        <time>2011-10-02T10:08:10Z</time>
      </trkpt>
      <trkpt lat="43.59082" lon="6.93131">
        <ele>19.3637695</ele>
        <time>2011-10-02T10:08:14Z</time>
      </trkpt>
      <trkpt lat="43.59081" lon="6.93138">
        <ele>21.286377</ele>
        <time>2011-10-02T10:08:18Z</time>
      </trkpt>
      <trkpt lat="43.5908" lon="6.93135">
        <ele>20.3249512</ele>
        <time>2011-10-02T10:08:31Z</time>
      </trkpt>
      <trkpt lat="43.59073" lon="6.93123">
        <ele>19.3637695</ele>
        <time>2011-10-02T10:09:52Z</time>
      </trkpt>
      <trkpt lat="43.59076" lon="6.93125">
        <ele>22.7282715</ele>
        <time>2011-10-02T10:12:29Z</time>
      </trkpt>
      <trkpt lat="43.59076" lon="6.93127">
        <ele>22.2475586</ele>
        <time>2011-10-02T10:12:53Z</time>
      </trkpt>
    </trkseg>
  </trk>
</gpx>